YYYY MM/DD hh:mm	Temp	Humid	W_dir	W_spd	Barom	T_int	Light	Power	Temp2	P2	Snow	T_mid	T_base	Precip
Year Date  Time 	(F)	(%)	(Deg)	(MPH)	("Hg)	(F)	/1000	(V)	(F)	-	(")	(F)	(F)	(")
2018 09/13 00:00	36.1	100.7	284.9	10.4	29.85	43.4	62.5	13.00	-39.9	0	0.4	36.2	42.3	0	29	0	0	0	52.1	50.2	0.0
2018 09/13 00:15	36.2	100.6	219.5	8.9	29.85	43.4	62.5	13.00	-39.9	0	0.4	36.2	42.4	0	29	0	0	0	51.9	50.0	0.0
2018 09/13 00:30	36.1	100.7	252.4	9.9	29.85	43.3	62.5	13.00	-39.9	0	0.5	36.2	42.5	0	29	0	0	0	51.9	50.0	0.0
2018 09/13 00:45	36.0	100.6	259.2	9.9	29.86	43.2	61.8	13.00	-40.0	0	0.4	36.2	42.4	0	29	0	0	0	51.6	50.0	0.0
2018 09/13 01:00	36.2	100.6	243.1	7.8	29.86	43.1	62.8	13.02	-40.1	0	0.6	36.2	42.3	0	29	0	0	0	51.5	49.8	0.0
2018 09/13 01:15	36.1	100.7	236.4	10.7	29.86	43.0	62.5	13.00	-39.9	0	0.5	36.2	42.3	0	29	0	0	0	51.3	49.7	0.0
2018 09/13 01:30	35.8	100.7	253.2	12.8	29.86	42.9	61.8	13.00	-40.0	0	0.7	36.2	42.3	0	29	0	0	0	51.3	49.7	0.0
2018 09/13 01:45	36.1	100.7	234.3	10.9	29.85	42.9	62.5	13.00	-39.9	0	0.4	36.2	42.3	0	29	0	0	0	51.1	49.6	0.0
2018 09/13 02:00	36.2	100.7	191.6	6.8	29.86	42.7	62.5	13.00	-40.1	0	0.4	36.2	42.0	0	29	0	0	0	51.0	49.5	0.0
2018 09/13 02:15	36.2	100.5	138.0	6.6	29.85	42.6	62.5	13.00	-39.9	0	0.3	36.2	41.6	0	29	0	0	0	50.9	49.4	0.0
2018 09/13 02:30	35.9	100.7	67.0	7.2	29.85	42.5	62.8	13.02	-40.0	0	0.6	35.3	41.1	0	29	0	0	0	50.6	49.3	0.0
2018 09/13 02:45	35.8	100.7	306.2	5.6	29.86	42.4	62.5	13.00	-39.9	0	0.4	35.3	41.2	0	29	0	0	0	50.4	49.2	0.0
2018 09/13 03:00	35.6	100.7	207.3	6.0	29.86	42.3	62.8	13.00	-39.8	0	0.0	35.3	40.8	0	29	0	0	0	50.3	49.0	0.0
2018 09/13 03:15	35.4	100.8	319.9	7.4	29.86	42.2	62.5	13.00	-39.9	0	0.4	35.3	40.5	0	29	0	0	0	50.1	48.9	0.0
2018 09/13 03:30	35.6	100.7	35.8	8.3	29.85	42.1	62.5	13.01	-40.0	0	0.4	35.3	40.2	0	29	0	0	0	50.0	48.7	0.0
2018 09/13 03:45	36.0	100.7	217.1	8.1	29.85	42.0	62.1	13.00	-40.0	0	0.6	35.3	40.2	0	29	0	0	0	49.7	48.6	0.0
2018 09/13 04:00	36.0	100.7	56.6	8.9	29.85	41.8	62.5	13.02	-40.0	0	0.4	36.2	40.7	0	29	0	0	0	49.5	48.5	0.0
2018 09/13 04:15	35.6	100.7	300.1	8.2	29.85	41.7	62.5	13.02	-40.0	0	0.6	35.3	40.8	0	29	0	0	0	49.3	48.4	0.0
2018 09/13 04:30	35.3	100.7	91.7	6.7	29.85	41.6	62.5	12.99	-40.0	0	0.3	35.3	39.8	0	29	0	0	0	49.2	48.4	0.0
2018 09/13 04:45	35.0	100.9	85.4	8.3	29.84	41.5	62.1	13.02	-39.9	0	0.2	35.3	39.8	0	29	0	0	0	49.2	48.3	0.0
2018 09/13 05:00	34.8	100.9	162.4	7.7	29.84	41.4	62.5	12.99	-39.9	0	0.1	34.4	39.5	0	29	0	0	0	49.0	48.2	0.0
2018 09/13 05:15	34.9	100.7	127.9	7.7	29.84	41.2	62.5	13.01	-39.8	0	0.2	34.4	39.0	0	29	0	0	0	48.9	48.2	0.0
2018 09/13 05:30	34.9	100.8	162.7	6.7	29.84	41.1	61.8	13.00	-39.9	0	0.4	34.4	39.0	0	29	0	0	0	48.8	48.0	0.0
2018 09/13 05:45	34.6	100.9	151.6	10.9	29.84	40.9	62.5	13.00	-40.2	0	0.4	34.4	38.5	0	29	0	0	0	48.7	47.9	0.0
2018 09/13 06:00	34.5	101.0	238.1	12.6	29.84	40.8	62.8	12.99	-40.0	0	0.6	33.5	39.0	0	29	0	0	0	48.5	47.7	0.0
2018 09/13 06:15	34.3	100.8	120.9	10.8	29.84	40.6	65.5	13.02	-39.6	0	0.6	33.5	38.8	0	29	0	0	0	48.4	47.6	0.0
2018 09/13 06:30	34.3	100.9	269.7	10.4	29.84	40.5	86.2	12.99	-39.9	0	0.3	33.5	38.2	0	29	0	0	0	48.3	47.5	0.0
2018 09/13 06:45	34.4	100.9	140.5	11.1	29.84	40.3	269.1	13.02	-40.0	0	0.6	33.5	37.9	0	29	0	0	0	48.0	47.4	0.0
2018 09/13 07:00	34.5	101.0	136.1	10.8	29.84	40.1	533.2	13.01	-39.8	0	0.6	33.5	38.4	0	29	0	0	0	47.8	47.2	0.0
2018 09/13 07:15	34.2	100.9	203.3	12.6	29.84	40.0	619.4	13.00	-39.9	0	0.6	33.5	40.2	0	29	0	0	0	47.7	47.1	0.0
2018 09/13 07:30	34.3	100.9	142.3	10.7	29.84	39.8	668.6	13.01	-40.1	0	0.4	33.5	39.4	0	29	0	0	0	47.6	47.0	0.0
2018 09/13 07:45	34.0	100.9	128.3	10.5	29.85	39.6	707.0	13.00	-39.9	0	0.4	34.4	39.7	0	29	0	0	0	47.4	46.8	0.0
2018 09/13 08:00	34.3	100.9	184.5	10.5	29.85	39.4	731.0	13.01	-39.9	0	0.3	34.4	40.4	0	29	0	0	0	47.2	46.7	0.0
2018 09/13 08:15	34.8	100.8	177.6	9.5	29.85	39.3	789.0	13.00	-40.0	0	0.6	35.3	40.6	0	29	0	0	0	47.0	46.6	0.0
2018 09/13 08:30	35.0	100.6	86.1	8.5	29.86	39.2	805.0	12.99	-39.9	0	0.3	36.2	42.2	0	29	0	0	0	46.8	46.6	0.0
2018 09/13 08:45	35.8	100.5	46.5	7.7	29.86	39.0	814.0	13.00	-40.0	0	0.6	37.1	43.0	0	29	0	0	0	46.6	46.6	0.0
2018 09/13 09:00	36.4	100.5	198.1	6.8	29.86	39.0	821.0	13.01	-40.0	0	0.6	38.0	43.8	0	29	0	0	0	46.6	46.8	0.0
2018 09/13 09:15	37.1	100.7	145.2	7.3	29.86	38.9	830.0	13.01	-39.9	0	0.7	39.8	44.5	0	29	0	0	0	46.8	47.4	0.0
2018 09/13 09:30	37.7	100.7	333.4	8.1	29.86	38.8	836.0	13.01	-40.0	0	0.5	39.8	45.1	0	29	0	0	0	47.1	47.8	0.0
2018 09/13 09:45	38.4	100.7	143.4	7.2	29.87	38.8	843.0	13.01	-40.0	0	0.7	41.6	45.8	0	29	0	0	0	47.1	47.8	0.0
2018 09/13 10:00	38.8	95.7	182.5	7.8	29.88	38.8	850.0	13.01	-39.9	0	0.5	42.5	46.3	0	29	0	0	0	47.1	47.8	0.0
2018 09/13 10:15	40.0	91.2	45.4	8.1	29.88	38.8	850.0	13.01	-40.0	0	0.8	41.6	46.7	0	29	0	0	0	47.1	47.8	0.0
2018 09/13 10:30	40.3	84.0	73.0	9.8	29.88	38.8	863.0	13.00	-39.9	0	0.6	43.4	47.2	0	29	0	0	0	47.1	47.8	0.0
2018 09/13 10:45	40.1	77.5	133.9	8.6	29.89	39.0	859.0	13.00	-40.0	0	0.0	45.2	48.4	0	29	0	0	0	47.1	47.8	0.0
2018 09/13 11:00	41.3	80.7	179.8	7.7	29.89	39.0	863.0	13.00	-40.2	0	1.0	43.4	49.0	0	29	0	0	0	47.1	47.8	0.0
2018 09/13 11:15	43.6	71.7	134.3	8.6	29.89	39.1	871.0	13.02	-39.9	0	0.8	45.2	50.1	0	29	0	0	0	47.1	47.8	0.0
2018 09/13 11:30	44.1	70.9	328.7	9.9	29.89	39.2	814.0	13.00	-39.9	0	-0.6	45.2	51.1	0	29	0	0	0	47.1	47.8	0.0
2018 09/13 11:45	43.6	77.4	199.7	4.5	29.90	39.4	808.0	13.01	-39.8	0	0.0	44.3	49.7	0	29	0	0	0	47.1	47.8	0.0
2018 09/13 12:00	41.1	83.9	187.0	2.7	29.90	39.5	821.0	13.00	-40.1	0	0.2	44.3	48.4	0	29	0	0	0	47.1	47.8	0.0
2018 09/13 12:15	41.1	81.7	259.8	5.2	29.90	39.8	833.0	13.02	-39.9	0	0.5	43.4	48.5	0	29	0	0	0	47.1	47.8	0.0
2018 09/13 12:30	43.0	73.7	150.3	8.2	29.90	39.9	839.0	13.00	-40.0	0	0.1	45.2	49.6	0	29	0	0	0	47.1	47.8	0.0
2018 09/13 12:45	42.1	76.8	270.1	9.9	29.91	40.1	829.0	13.00	-39.8	0	0.2	45.2	49.4	0	29	0	0	0	47.1	47.8	0.0
2018 09/13 13:00	43.0	70.9	232.1	10.9	29.91	40.3	844.0	13.01	-40.0	0	0.2	47.0	50.7	0	29	0	0	0	47.1	47.8	0.0
2018 09/13 13:15	43.0	64.3	264.8	14.4	29.91	40.5	842.0	13.01	-40.0	0	0.7	46.1	51.0	0	29	0	0	0	47.1	47.8	0.0
2018 09/13 13:30	44.3	63.1	307.4	6.6	29.92	40.8	844.0	13.02	-40.0	0	0.4	46.1	52.3	0	29	0	0	0	47.1	47.8	0.0
2018 09/13 13:45	45.2	64.1	38.4	7.2	29.92	41.0	848.0	13.00	-40.0	0	-0.4	49.7	52.8	0	29	0	0	0	47.1	47.8	0.0
2018 09/13 14:00	45.4	69.9	359.8	8.0	29.92	41.1	844.0	13.02	-39.8	0	0.1	47.0	51.6	0	29	0	0	0	47.1	47.8	0.0
2018 09/13 14:15	43.8	72.4	303.4	10.5	29.93	41.4	843.0	12.98	-40.0	0	-0.3	46.1	51.9	0	29	0	0	0	47.1	47.8	0.0
2018 09/13 14:30	45.4	68.3	159.7	8.2	29.93	41.6	854.0	13.01	-39.9	0	0.5	47.9	52.0	0	29	0	0	0	47.1	47.8	0.0
2018 09/13 14:45	43.8	71.4	282.4	13.7	29.93	41.8	836.0	13.00	-40.0	0	-0.2	47.0	52.4	0	29	0	0	0	47.1	47.8	0.0
2018 09/13 15:00	44.4	73.9	293.8	5.4	29.93	42.0	836.0	13.01	-39.9	0	0.2	48.8	51.9	0	29	0	0	0	47.1	47.8	0.0
2018 09/13 15:15	45.5	67.1	268.6	13.9	29.94	42.2	844.0	13.01	-40.1	0	-0.7	48.8	53.7	0	29	0	0	0	47.1	47.8	0.0
2018 09/13 15:30	46.8	64.6	265.1	9.5	29.94	42.4	851.0	13.00	-39.9	0	0.3	50.6	53.7	0	29	0	0	0	47.1	47.8	0.0
2018 09/13 15:45	45.2	69.4	257.0	12.4	29.94	42.6	832.0	13.00	-40.2	0	0.2	48.8	53.0	0	29	0	0	0	47.1	47.8	0.0
2018 09/13 16:00	45.2	67.7	250.5	15.4	29.94	42.9	821.0	13.01	-39.8	0	0.2	47.0	52.5	0	29	0	0	0	47.1	47.8	0.0
2018 09/13 16:15	44.8	69.6	286.7	11.4	29.95	43.2	830.0	13.00	-39.8	0	0.2	47.9	52.4	0	29	0	0	0	47.1	47.8	0.0
2018 09/13 16:30	45.4	65.1	200.6	17.9	29.95	43.3	869.0	13.02	-39.9	0	0.2	47.9	53.1	0	29	0	0	0	47.1	47.8	0.0
2018 09/13 16:45	46.4	64.7	292.3	15.1	29.95	43.6	863.0	13.01	-40.0	0	0.6	48.8	54.2	0	29	0	0	0	47.1	47.8	0.0
2018 09/13 17:00	47.4	62.6	236.7	7.1	29.95	43.8	836.0	13.02	-40.0	0	-0.0	48.8	55.1	0	29	0	0	0	47.1	47.8	0.0
2018 09/13 17:15	46.4	62.1	87.2	11.5	29.95	44.0	839.0	13.02	-39.9	0	0.2	47.9	54.3	0	29	0	0	0	47.1	47.8	0.0
2018 09/13 17:30	44.8	66.7	222.8	13.9	29.96	44.2	836.0	13.00	-39.9	0	-0.0	46.1	52.9	0	29	0	0	0	47.1	47.8	0.0
2018 09/13 17:45	45.3	64.9	239.1	11.3	29.96	44.4	822.0	13.00	-40.2	0	-0.2	47.0	52.6	0	29	0	0	0	47.1	47.8	0.0
2018 09/13 18:00	45.8	68.9	291.6	8.1	29.96	44.6	849.0	13.02	-40.0	0	0.1	47.0	51.6	0	29	0	0	0	47.1	47.8	0.0
2018 09/13 18:15	45.6	66.7	282.1	15.7	29.97	44.8	874.0	12.99	-40.0	0	-0.2	47.0	51.2	0	29	0	0	0	47.1	47.8	0.0
2018 09/13 18:30	44.7	73.4	271.2	13.8	29.97	45.0	910.0	13.01	-40.2	0	-0.2	46.1	50.4	0	29	0	0	0	47.1	47.8	0.0
2018 09/13 18:45	43.4	77.2	281.3	9.3	29.97	45.3	800.0	13.00	-40.0	0	-0.4	44.3	49.8	0	29	0	0	0	47.1	47.8	0.0
2018 09/13 19:00	43.8	76.4	290.8	5.8	29.97	45.5	925.0	13.03	-40.0	0	0.1	43.4	49.6	0	29	0	0	0	47.1	47.8	0.0
2018 09/13 19:15	42.5	80.8	271.0	9.3	29.98	45.7	596.9	13.00	-39.9	0	0.0	42.5	49.0	0	29	0	0	0	47.1	47.8	0.0
2018 09/13 19:30	41.0	88.2	271.6	8.3	29.98	45.9	308.8	13.02	-40.2	0	0.0	41.6	48.0	0	29	0	0	0	47.1	47.8	0.0
2018 09/13 19:45	39.9	93.5	269.3	7.3	29.98	46.1	96.0	13.00	-39.9	0	0.2	39.8	46.8	0	29	0	0	0	47.1	47.8	0.0
2018 09/13 20:00	39.6	97.0	305.9	16.1	29.98	46.2	64.5	12.99	-40.0	0	0.4	39.8	46.1	0	29	0	0	0	47.1	47.8	0.0
2018 09/13 20:15	39.4	98.6	286.3	12.9	29.99	46.3	60.4	13.00	-39.8	0	-0.3	38.9	45.9	0	29	0	0	0	47.1	47.8	0.0
2018 09/13 20:30	39.2	99.1	299.6	8.2	29.99	46.5	60.4	13.01	-39.9	0	0.0	38.9	45.8	0	29	0	0	0	47.1	47.8	0.0
2018 09/13 20:45	39.2	99.9	300.5	11.2	30.00	46.5	61.1	13.00	-39.9	0	0.4	38.0	45.3	0	29	0	0	0	47.1	47.8	0.0
2018 09/13 21:00	38.9	100.0	266.2	4.4	30.00	46.6	60.4	13.02	-40.0	0	-0.0	38.9	45.1	0	29	0	0	0	47.1	47.8	0.0
2018 09/13 21:15	39.2	100.3	290.1	9.8	30.00	46.7	61.1	13.00	-39.9	0	-0.1	38.0	44.9	0	29	0	0	0	47.1	47.8	0.0
2018 09/13 21:30	39.2	100.0	283.2	10.8	30.00	46.7	60.4	13.01	-40.0	0	-0.1	38.0	44.4	0	29	0	0	0	47.1	47.8	0.0
2018 09/13 21:45	39.3	98.9	279.8	10.7	30.00	46.8	61.4	13.00	-40.2	0	0.0	38.0	44.1	0	29	0	0	0	47.1	47.8	0.0
2018 09/13 22:00	39.3	98.3	276.6	12.9	29.99	46.8	61.1	13.00	-40.1	0	-0.2	38.0	43.6	0	29	0	0	0	47.1	47.8	0.0
2018 09/13 22:15	38.9	99.6	276.8	10.8	29.99	46.8	61.8	13.00	-39.6	0	0.5	37.1	43.6	0	29	0	0	0	47.1	47.8	0.0
2018 09/13 22:30	38.8	100.0	278.6	10.4	29.99	46.7	61.1	13.00	-40.0	0	-0.3	38.0	43.5	0	29	0	0	0	47.1	47.8	0.0
2018 09/13 22:45	39.0	100.2	283.3	9.2	29.99	46.7	61.8	13.00	-39.9	0	-0.1	38.0	44.0	0	29	0	0	0	47.1	47.8	0.0
2018 09/13 23:00	39.2	100.4	281.6	7.2	30.00	46.7	61.1	13.02	-39.9	0	-0.2	38.9	44.4	0	29	0	0	0	47.1	47.8	0.0
2018 09/13 23:15	38.9	100.4	281.6	9.3	29.99	46.7	61.1	13.02	-39.9	0	-0.2	38.9	44.4	0	29	0	0	0	47.1	47.8	0.0
2018 09/13 23:30	38.5	100.4	273.9	8.0	29.99	46.6	61.1	13.00	-40.0	0	0.0	38.0	44.1	0	29	0	0	0	47.1	47.8	0.0
2018 09/13 23:45	38.7	100.6	249.0	6.2	29.98	46.5	61.4	13.01	-39.9	0	0.0	38.0	43.2	0	29	0	0	0	47.1	47.8	0.0
2018 09/14 00:00	38.8	100.6	284.6	7.2	29.98	46.5	61.4	13.02	-39.9	0	-0.2	38.0	42.6	0	29	0	0	0	47.1	47.8	0.0
2018 09/14 00:15	38.7	100.5	208.9	7.4	29.98	46.4	61.4	13.02	-40.1	0	-0.3	38.0	42.9	0	29	0	0	0	47.1	47.8	0.0
2018 09/14 00:30	38.7	100.5	220.3	9.2	29.98	46.3	61.4	12.99	-39.9	0	0.1	37.1	40.5	0	29	0	0	0	47.1	47.8	0.0
2018 09/14 00:45	38.5	100.6	237.1	9.7	29.98	46.2	61.4	13.02	-39.9	0	-0.5	37.1	39.1	0	29	0	0	0	47.1	47.8	0.0
2018 09/14 01:00	37.6	100.6	252.8	5.2	29.97	46.1	61.4	13.02	-39.8	0	0.2	37.1	37.2	0	29	0	0	0	47.1	47.8	0.0
2018 09/14 01:15	37.8	100.6	254.2	6.2	29.98	46.0	61.4	13.01	-39.8	0	-0.2	37.1	36.3	0	29	0	0	0	47.1	47.8	0.0
2018 09/14 01:30	37.9	100.7	220.1	3.9	29.98	45.9	61.1	13.01	-40.2	0	-0.6	37.1	35.1	0	29	0	0	0	47.1	47.8	0.0
2018 09/14 01:45	37.9	100.4	274.0	6.1	29.97	45.7	61.4	13.00	-40.1	0	0.0	37.1	34.9	0	29	0	0	0	47.1	47.8	0.0
2018 09/14 02:00	38.2	100.6	272.4	2.7	29.96	45.6	61.1	13.00	-40.0	0	-0.1	37.1	33.6	0	29	0	0	0	47.1	47.8	0.0
2018 09/14 02:15	38.5	100.6	207.5	4.5	29.96	45.5	61.8	13.01	-40.0	0	-0.1	37.1	32.8	0	29	0	0	0	47.1	47.8	0.0
2018 09/14 02:30	38.8	96.5	174.3	2.5	29.96	45.3	61.8	13.00	-39.9	0	-0.2	37.1	32.4	0	29	0	0	0	47.1	47.8	0.0
2018 09/14 02:45	38.7	95.8	138.6	2.5	29.96	45.2	62.1	13.00	-40.0	0	-0.4	37.1	31.7	0	29	0	0	0	47.1	47.8	0.0
2018 09/14 03:00	38.9	92.8	225.5	2.0	29.95	45.0	61.8	13.00	-39.9	0	0.1	37.1	31.4	0	29	0	0	0	47.1	47.8	0.0
2018 09/14 03:15	38.9	93.7	263.5	3.9	29.95	44.9	61.8	13.00	-39.8	0	-0.0	37.1	30.8	0	29	0	0	0	47.1	47.8	0.0
2018 09/14 03:30	38.7	95.7	288.2	5.1	29.95	44.8	61.4	13.02	-39.9	0	-0.0	37.1	31.3	0	29	0	0	0	47.1	47.8	0.0
2018 09/14 03:45	38.4	94.6	289.4	4.6	29.95	44.6	61.4	12.99	-39.9	0	-0.1	37.1	30.4	0	29	0	0	0	47.1	47.8	0.0
2018 09/14 04:00	38.7	93.8	290.9	5.1	29.95	44.4	61.8	13.01	-39.9	0	-0.2	37.1	30.5	0	29	0	0	0	47.1	47.8	0.0
2018 09/14 04:15	38.9	93.1	292.5	2.5	29.95	44.3	61.8	13.00	-40.2	0	-0.4	37.1	30.3	0	29	0	0	0	47.1	47.8	0.0
2018 09/14 04:30	39.4	90.7	246.6	5.3	29.95	44.2	61.4	13.00	-39.9	0	-0.1	38.0	29.9	0	29	0	0	0	47.1	47.8	0.0
2018 09/14 04:45	39.0	92.6	270.5	5.1	29.94	44.1	61.1	13.02	-39.9	0	-0.0	37.1	30.0	0	29	0	0	0	47.1	47.8	0.0
2018 09/14 05:00	38.9	93.6	270.9	4.7	29.94	44.0	61.1	13.00	-39.8	0	0.1	37.1	30.6	0	29	0	0	0	47.1	47.8	0.0
2018 09/14 05:15	39.0	93.2	280.5	6.2	29.94	43.8	61.1	13.02	-40.0	0	0.2	37.1	30.2	0	29	0	0	0	47.1	47.8	0.0
2018 09/14 05:30	38.9	93.5	285.1	5.2	29.93	43.7	61.1	13.02	-40.0	0	0.0	37.1	29.9	0	29	0	0	0	47.1	47.8	0.0
2018 09/14 05:45	38.9	93.8	284.7	4.2	29.93	43.6	61.1	13.00	-39.9	0	0.2	37.1	29.5	0	29	0	0	0	47.1	47.8	0.0
2018 09/14 06:00	38.9	93.3	300.0	6.1	29.92	43.5	61.8	13.00	-40.2	0	0.4	37.1	29.0	0	29	0	0	0	47.1	47.8	0.0
2018 09/14 06:15	38.9	92.9	283.6	5.3	29.92	43.3	63.5	13.01	-40.0	0	0.2	37.1	29.5	0	29	0	0	0	47.1	47.8	0.0
2018 09/14 06:30	39.0	88.6	287.1	4.4	29.92	43.2	84.2	13.00	-39.9	0	0.2	37.1	29.1	0	29	0	0	0	47.1	47.8	0.0
2018 09/14 06:45	39.2	89.2	280.8	5.2	29.92	43.1	267.1	13.02	-39.8	0	-0.2	37.1	28.6	0	29	0	0	0	47.1	47.8	0.0
2018 09/14 07:00	39.2	89.6	268.8	4.2	29.92	43.0	482.3	13.00	-40.0	0	0.0	38.0	28.8	0	29	0	0	0	47.1	47.8	0.0
2018 09/14 07:15	39.3	91.4	266.9	3.9	29.92	42.9	618.7	13.02	-39.9	0	-0.2	38.0	29.1	0	29	0	0	0	47.1	47.8	0.0
2018 09/14 07:30	39.7	87.5	256.3	3.2	29.92	42.7	690.3	13.00	-39.9	0	-0.1	38.9	29.0	0	29	0	0	0	47.1	47.8	0.0
2018 09/14 07:45	39.5	85.7	268.1	4.5	29.92	42.6	730.0	13.02	-39.8	0	0.1	38.9	30.3	0	29	0	0	0	47.1	47.8	0.0
2018 09/14 08:00	39.5	85.5	270.1	4.6	29.92	42.4	754.0	13.02	-40.0	0	0.2	39.8	31.6	0	29	0	0	0	47.1	47.8	0.0
2018 09/14 08:15	40.5	84.2	198.0	2.2	29.91	42.4	779.0	13.00	-39.9	0	0.7	39.8	33.2	0	29	0	0	0	47.1	47.8	0.0
2018 09/14 08:30	41.3	80.2	232.1	3.2	29.91	42.2	796.0	12.99	-40.2	0	-0.1	40.7	35.3	0	29	0	0	0	47.1	47.8	0.0
2018 09/14 08:45	42.1	79.8	218.9	1.1	29.91	42.2	806.0	13.01	-40.1	0	-0.1	41.6	38.2	0	29	0	0	0	47.1	47.8	0.0
2018 09/14 09:00	43.6	75.9	199.3	2.2	29.91	42.1	815.0	13.03	-39.9	0	-0.0	43.4	42.3	0	29	0	0	0	47.1	47.8	0.0
2018 09/14 09:15	42.5	78.3	268.6	2.9	29.90	42.1	823.0	13.01	-39.9	0	0.3	43.4	45.4	0	29	0	0	0	47.1	47.8	0.0
2018 09/14 09:30	43.3	77.0	178.8	2.7	29.91	42.1	829.0	13.00	-39.9	0	-0.1	43.4	46.8	0	29	0	0	0	47.1	47.8	0.0
2018 09/14 09:45	44.1	74.7	183.1	3.6	29.91	42.1	834.0	13.00	-39.8	0	-0.3	44.3	47.6	0	29	0	0	0	47.1	47.8	0.0
2018 09/14 10:00	44.5	73.0	204.6	1.6	29.91	42.1	840.0	13.00	-39.9	0	-0.1	45.2	48.4	0	29	0	0	0	47.1	47.8	0.0
2018 09/14 10:15	45.0	73.7	222.2	3.9	29.91	42.2	847.0	13.01	-39.8	0	0.2	45.2	48.3	0	29	0	0	0	47.1	47.8	0.0
2018 09/14 10:30	44.4	75.3	245.6	6.6	29.91	42.3	848.0	13.00	-39.9	0	-0.3	46.1	49.2	0	29	0	0	0	47.1	47.8	0.0
2018 09/14 10:45	44.3	76.3	279.7	3.6	29.91	42.4	857.0	13.02	-40.0	0	-0.1	47.0	50.7	0	29	0	0	0	47.1	47.8	0.0
2018 09/14 11:00	45.6	72.8	298.9	3.8	29.91	42.6	860.0	13.02	-40.0	0	0.0	47.9	51.5	0	29	0	0	0	47.1	47.8	0.0
2018 09/14 11:15	47.1	65.3	250.9	5.8	29.92	42.9	835.0	13.00	-40.0	0	-0.4	49.7	51.9	0	29	0	0	0	47.1	47.8	0.0
2018 09/14 11:30	48.2	62.6	232.0	6.5	29.92	43.2	866.0	12.99	-40.0	0	0.0	51.5	53.1	0	29	0	0	0	47.1	47.8	0.0
2018 09/14 11:45	48.0	62.5	171.1	5.5	29.92	43.4	870.0	13.00	-39.9	0	0.1	50.6	54.0	0	29	0	0	0	47.1	47.8	0.0
2018 09/14 12:00	48.7	64.3	159.3	6.1	29.92	43.7	870.0	13.00	-39.8	0	-0.2	51.5	55.0	0	29	0	0	0	47.1	47.8	0.0
2018 09/14 12:15	48.9	64.8	252.9	9.4	29.92	44.0	863.0	13.03	-39.9	0	0.1	51.5	54.4	0	29	0	0	0	47.1	47.8	0.0
2018 09/14 12:30	47.2	69.3	246.6	5.9	29.92	44.3	827.0	13.01	-40.0	0	-0.2	51.5	54.2	0	29	0	0	0	47.1	47.8	0.0
2018 09/14 12:45	47.7	68.7	238.2	5.8	29.92	44.6	837.0	13.02	-40.2	0	0.0	49.7	54.0	0	29	0	0	0	47.1	47.8	0.0
2018 09/14 13:00	48.9	63.3	230.4	7.1	29.92	45.0	836.0	13.00	-40.0	0	0.4	51.5	55.2	0	29	0	0	0	47.1	47.8	0.0
2018 09/14 13:15	48.7	63.5	306.3	8.0	29.92	45.3	848.0	13.00	-40.0	0	-0.0	51.5	55.3	0	29	0	0	0	47.1	47.8	0.0
2018 09/14 13:30	48.4	64.3	266.7	7.2	29.93	45.6	859.0	13.02	-40.1	0	0.3	50.6	54.8	0	29	0	0	0	47.1	47.8	0.0
2018 09/14 13:45	50.0	59.6	275.3	8.6	29.93	45.9	844.0	13.00	-39.9	0	0.2	51.5	55.8	0	29	0	0	0	47.1	47.8	0.0
2018 09/14 14:00	50.6	59.6	232.2	10.0	29.93	46.2	856.0	13.01	-39.9	0	0.2	52.4	56.0	0	29	0	0	0	47.1	47.8	0.0
2018 09/14 14:15	50.8	49.3	169.7	16.5	29.93	46.5	864.0	13.02	-39.9	0	-0.2	55.1	58.3	0	29	0	0	0	47.1	47.8	0.0
2018 09/14 14:30	50.4	52.8	142.6	14.2	29.93	46.8	879.0	13.02	-39.9	0	-0.2	55.1	59.1	0	29	0	0	0	47.1	47.8	0.0
2018 09/14 14:45	50.4	52.9	226.3	8.0	29.94	47.1	855.0	13.00	-39.9	0	-0.2	55.1	58.5	0	29	0	0	0	47.1	47.8	0.0
2018 09/14 15:00	49.8	59.4	304.1	7.8	29.93	47.4	882.0	13.02	-40.0	0	0.1	54.2	57.5	0	29	0	0	0	47.1	47.8	0.0
2018 09/14 15:15	50.1	58.0	205.7	7.1	29.93	47.6	861.0	13.00	-39.8	0	0.0	53.3	57.4	0	29	0	0	0	47.1	47.8	0.0
2018 09/14 15:30	49.3	62.0	295.2	14.4	29.93	47.9	844.0	13.01	-39.6	0	0.2	51.5	57.6	0	29	0	0	0	47.1	47.8	0.0
2018 09/14 15:45	48.4	64.5	52.0	8.6	29.94	48.1	847.0	13.01	-40.0	0	0.1	50.6	56.8	0	29	0	0	0	47.1	47.8	0.0
2018 09/14 16:00	48.7	65.6	217.6	9.9	29.94	48.5	844.0	13.02	-39.9	0	0.6	52.4	56.4	0	29	0	0	0	47.1	47.8	0.0
2018 09/14 16:15	48.7	64.8	260.7	13.7	29.94	48.6	832.0	13.02	-40.0	0	0.1	51.5	56.2	0	29	0	0	0	47.1	47.8	0.0
2018 09/14 16:30	47.6	70.6	278.8	10.2	29.95	48.9	827.0	13.00	-40.2	0	0.2	49.7	54.7	0	29	0	0	0	47.1	47.8	0.0
2018 09/14 16:45	46.4	73.3	298.0	14.5	29.95	49.1	839.0	13.02	-40.0	0	0.2	48.8	53.9	0	29	0	0	0	47.1	47.8	0.0
2018 09/14 17:00	48.2	69.3	265.2	9.1	29.95	49.3	818.0	13.01	-39.9	0	0.0	49.7	54.0	0	29	0	0	0	47.1	47.8	0.0
2018 09/14 17:15	46.4	73.6	249.1	13.7	29.96	49.5	769.0	13.01	-39.8	0	-0.0	48.8	53.5	0	29	0	0	0	47.1	47.8	0.0
2018 09/14 17:30	46.1	74.5	310.8	9.8	29.96	49.7	805.0	13.03	-39.8	0	0.1	47.9	53.3	0	29	0	0	0	47.1	47.8	0.0
2018 09/14 17:45	45.6	76.4	293.4	12.8	29.96	49.9	828.0	13.02	-39.9	0	0.4	47.9	53.0	0	29	0	0	0	47.1	47.8	0.0
2018 09/14 18:00	45.5	77.8	218.8	10.0	29.96	50.1	793.0	13.01	-39.9	0	0.0	47.9	52.6	0	29	0	0	0	47.1	47.8	0.0
2018 09/14 18:15	45.4	78.1	70.2	6.5	29.97	50.3	806.0	13.01	-39.8	0	0.1	47.0	52.8	0	29	0	0	0	47.1	47.8	0.0
2018 09/14 18:30	44.5	80.5	313.0	11.2	29.97	50.4	723.0	13.00	-40.1	0	0.2	46.1	51.7	0	29	0	0	0	47.1	47.8	0.0
2018 09/14 18:45	44.3	81.1	296.4	14.5	29.96	50.5	584.3	13.01	-40.2	0	0.2	45.2	50.7	0	29	0	0	0	47.1	47.8	0.0
2018 09/14 19:00	43.4	82.8	278.2	4.6	29.97	50.8	394.6	13.00	-40.0	0	0.2	44.3	50.1	0	29	0	0	0	47.1	47.8	0.0
2018 09/14 19:15	42.8	85.1	292.3	8.2	29.96	50.8	213.4	13.02	-39.9	0	0.0	44.3	49.7	0	29	0	0	0	47.1	47.8	0.0
2018 09/14 19:30	42.3	86.8	267.8	8.0	29.96	50.8	115.4	13.01	-40.0	0	0.2	43.4	49.3	0	29	0	0	0	47.1	47.8	0.0
2018 09/14 19:45	41.5	89.2	263.7	10.7	29.96	50.9	72.9	13.01	-39.9	0	0.2	41.6	48.4	0	29	0	0	0	47.1	47.8	0.0
2018 09/14 20:00	40.9	90.7	223.5	10.1	29.96	50.9	62.1	13.03	-40.0	0	0.2	40.7	47.4	0	29	0	0	0	47.1	47.8	0.0
2018 09/14 20:15	40.2	92.4	264.9	7.1	29.97	50.9	61.1	13.01	-40.0	0	0.2	39.8	46.8	0	29	0	0	0	47.1	47.8	0.0
2018 09/14 20:30	40.4	93.2	276.3	12.5	29.96	50.9	61.1	13.01	-40.0	0	0.3	39.8	46.2	0	29	0	0	0	47.1	47.8	0.0
2018 09/14 20:45	39.8	94.3	284.8	9.4	29.96	51.0	60.4	13.01	-40.0	0	0.4	38.9	46.0	0	29	0	0	0	47.1	47.8	0.0
2018 09/14 21:00	39.5	94.8	205.6	6.7	29.96	50.9	60.7	13.00	-40.1	0	0.4	38.9	43.9	0	29	0	0	0	47.1	47.8	0.0
2018 09/14 21:15	39.3	95.3	282.2	7.9	29.96	51.0	60.7	13.02	-39.8	0	0.2	38.9	42.3	0	29	0	0	0	47.1	47.8	0.0
2018 09/14 21:30	39.1	95.1	283.4	6.7	29.96	50.7	61.1	13.01	-40.2	0	0.2	38.0	41.6	0	29	0	0	0	47.1	47.8	0.0
2018 09/14 21:45	39.6	93.7	287.8	9.8	29.96	50.7	61.1	13.03	-39.9	0	0.0	38.9	41.8	0	29	0	0	0	47.1	47.8	0.0
2018 09/14 22:00	39.1	93.4	249.2	8.3	29.96	50.6	61.8	13.01	-40.2	0	0.2	38.0	44.2	0	29	0	0	0	47.1	47.8	0.0
2018 09/14 22:15	39.6	92.3	266.6	7.9	29.96	50.5	60.7	13.00	-39.9	0	0.2	38.9	44.1	0	29	0	0	0	47.1	47.8	0.0
2018 09/14 22:30	39.9	90.5	259.2	7.9	29.95	50.4	61.4	13.01	-39.8	0	0.2	38.0	43.8	0	29	0	0	0	47.1	47.8	0.0
2018 09/14 22:45	40.0	89.4	153.6	5.4	29.95	50.3	61.8	13.01	-39.9	0	-0.2	38.9	43.1	0	29	0	0	0	47.1	47.8	0.0
2018 09/14 23:00	40.1	91.9	162.0	5.5	29.95	50.1	61.4	13.00	-39.8	0	0.1	38.9	41.2	0	29	0	0	0	47.1	47.8	0.0
2018 09/14 23:15	40.4	89.5	76.3	7.3	29.94	49.9	62.1	13.01	-40.1	0	0.1	38.9	40.6	0	29	0	0	0	47.1	47.8	0.0
2018 09/14 23:30	40.0	91.0	29.6	5.8	29.94	49.8	61.8	13.01	-39.8	0	0.0	38.0	39.6	0	29	0	0	0	47.1	47.8	0.0
2018 09/14 23:45	40.3	89.3	202.6	6.6	29.93	49.7	61.1	13.02	-40.0	0	-0.2	38.9	38.8	0	29	0	0	0	47.1	47.8	0.0
2018 09/15 00:00	40.0	88.3	268.5	4.9	29.93	49.5	61.4	13.00	-40.0	0	0.0	38.0	37.9	0	29	0	0	0	47.1	47.8	0.0
2018 09/15 00:15	40.5	85.4	118.8	5.8	29.92	49.3	61.4	13.03	-39.8	0	-0.2	38.9	37.0	0	29	0	0	0	47.1	47.8	0.0
2018 09/15 00:30	40.3	85.2	282.7	5.5	29.92	49.1	61.1	13.00	-39.9	0	0.1	38.9	35.8	0	29	0	0	0	47.1	47.8	0.0
2018 09/15 00:45	40.3	85.8	229.5	10.8	29.91	48.9	61.4	13.01	-40.0	0	0.0	38.9	34.9	0	29	0	0	0	47.1	47.8	0.0
2018 09/15 01:00	40.1	86.3	280.0	9.8	29.91	48.7	61.4	13.00	-39.9	0	0.2	38.0	34.0	0	29	0	0	0	47.1	47.8	0.0
2018 09/15 01:15	39.8	88.4	263.7	7.5	29.90	48.5	61.4	13.02	-40.2	0	0.2	38.0	34.1	0	29	0	0	0	47.1	47.8	0.0
2018 09/15 01:30	40.0	87.8	264.8	9.4	29.90	48.2	61.1	13.03	-40.0	0	0.1	38.9	33.4	0	29	0	0	0	47.1	47.8	0.0
2018 09/15 01:45	40.0	87.8	232.2	7.2	29.89	48.0	61.4	13.02	-40.0	0	0.0	38.0	33.3	0	29	0	0	0	47.1	47.8	0.0
2018 09/15 02:00	39.8	88.3	159.6	5.2	29.89	47.9	61.1	13.02	-39.9	0	-0.4	38.0	32.6	0	29	0	0	0	47.1	47.8	0.0
2018 09/15 02:15	39.8	87.9	243.6	8.3	29.89	47.7	61.8	13.00	-40.0	0	-0.1	38.0	32.7	0	29	0	0	0	47.1	47.8	0.0
2018 09/15 02:30	40.0	88.5	122.4	6.6	29.88	47.6	61.8	13.02	-40.1	0	-0.2	38.0	31.7	0	29	0	0	0	47.1	47.8	0.0
2018 09/15 02:45	40.9	85.9	141.0	6.7	29.88	47.4	61.8	13.00	-40.0	0	0.2	38.0	31.1	0	29	0	0	0	47.1	47.8	0.0
2018 09/15 03:00	41.1	83.7	148.3	6.9	29.88	47.2	61.4	13.00	-40.0	0	-0.2	38.0	30.9	0	29	0	0	0	47.1	47.8	0.0
2018 09/15 03:15	40.3	87.5	214.0	4.7	29.87	47.1	61.4	13.02	-40.1	0	0.1	38.0	30.5	0	29	0	0	0	47.1	47.8	0.0
2018 09/15 03:30	39.9	88.6	144.8	4.9	29.87	46.9	61.1	13.02	-40.0	0	-0.4	38.0	30.2	0	29	0	0	0	47.1	47.8	0.0
2018 09/15 03:45	39.9	88.7	94.8	4.5	29.87	46.7	61.8	13.02	-39.9	0	0.0	38.0	29.8	0	29	0	0	0	47.1	47.8	0.0
2018 09/15 04:00	40.6	81.3	147.2	6.0	29.86	46.5	62.1	13.02	-39.9	0	0.0	38.0	29.5	0	29	0	0	0	47.1	47.8	0.0
2018 09/15 04:15	40.5	85.3	103.0	4.0	29.86	46.4	61.4	13.02	-39.9	0	-0.1	38.0	29.3	0	29	0	0	0	47.1	47.8	0.0
2018 09/15 04:30	40.0	88.4	149.6	2.6	29.86	46.3	61.8	13.01	-39.9	0	-0.0	37.1	29.1	0	29	0	0	0	47.1	47.8	0.0
2018 09/15 04:45	39.4	90.1	143.1	2.2	29.86	46.1	61.1	13.00	-40.0	0	-0.2	37.1	28.8	0	29	0	0	0	47.1	47.8	0.0
2018 09/15 05:00	39.6	89.4	213.1	2.7	29.85	46.0	61.4	13.01	-40.0	0	0.2	37.1	28.2	0	29	0	0	0	47.1	47.8	0.0
2018 09/15 05:15	39.6	90.0	265.9	3.5	29.85	45.9	61.8	13.01	-40.2	0	0.2	37.1	28.2	0	29	0	0	0	47.1	47.8	0.0
2018 09/15 05:30	39.8	90.7	265.9	3.2	29.84	45.7	61.8	13.02	-40.0	0	0.1	37.1	28.6	0	29	0	0	0	47.1	47.8	0.0
2018 09/15 05:45	39.4	91.1	265.9	2.6	29.84	45.7	61.4	13.00	-39.9	0	-0.2	38.0	28.0	0	29	0	0	0	47.1	47.8	0.0
2018 09/15 06:00	39.6	89.4	264.4	2.7	29.84	45.5	61.4	13.00	-40.0	0	0.2	37.1	28.7	0	29	0	0	0	47.1	47.8	0.0
2018 09/15 06:15	39.5	89.5	264.8	2.1	29.84	45.5	63.1	13.00	-40.0	0	0.0	37.1	28.2	0	29	0	0	0	47.1	47.8	0.0
2018 09/15 06:30	39.8	86.8	229.1	0.0	29.84	45.4	83.8	13.00	-39.9	0	-0.2	37.1	28.9	0	29	0	0	0	47.1	47.8	0.0
2018 09/15 06:45	39.5	86.3	213.4	1.9	29.83	45.3	213.1	13.02	-39.9	0	0.0	37.1	28.4	0	29	0	0	0	47.1	47.8	0.0
2018 09/15 07:00	40.4	82.7	211.5	3.2	29.83	45.1	451.7	13.02	-39.9	0	0.2	37.1	28.0	0	29	0	0	0	47.1	47.8	0.0
2018 09/15 07:15	41.0	77.4	211.5	1.6	29.83	45.0	603.7	13.00	-39.8	0	0.0	38.0	28.5	0	29	0	0	0	47.1	47.8	0.0
2018 09/15 07:30	41.4	74.4	208.3	2.2	29.83	45.0	681.8	13.01	-39.8	0	0.1	38.9	28.8	0	29	0	0	0	47.1	47.8	0.0
2018 09/15 07:45	41.6	75.9	203.4	3.5	29.83	44.8	711.0	13.00	-39.9	0	0.3	39.8	29.7	0	29	0	0	0	47.1	47.8	0.0
2018 09/15 08:00	41.4	76.1	150.2	4.1	29.83	44.8	770.0	13.00	-40.2	0	0.5	39.8	30.8	0	29	0	0	0	47.1	47.8	0.0
2018 09/15 08:15	42.2	73.9	157.1	0.1	29.82	44.7	772.0	13.00	-40.0	0	0.1	39.8	32.3	0	29	0	0	0	47.1	47.8	0.0
2018 09/15 08:30	43.8	70.9	200.9	0.0	29.82	44.6	819.0	13.00	-40.1	0	-0.1	41.6	35.0	0	29	0	0	0	47.1	47.8	0.0
2018 09/15 08:45	43.4	73.5	165.8	1.8	29.82	44.6	819.0	13.01	-40.0	0	0.2	42.5	38.8	0	29	0	0	0	47.1	47.8	0.0
2018 09/15 09:00	44.8	69.6	200.8	2.6	29.81	44.5	817.0	13.00	-40.0	0	-0.1	44.3	45.1	0	29	0	0	0	47.1	47.8	0.0
2018 09/15 09:15	43.7	76.4	204.3	1.2	29.82	44.5	818.0	13.00	-39.9	0	0.0	44.3	46.5	0	29	0	0	0	47.1	47.8	0.0
2018 09/15 09:30	42.5	82.1	260.2	0.8	29.82	44.5	827.0	13.00	-39.6	0	0.2	43.4	47.4	0	29	0	0	0	47.1	47.8	0.0
2018 09/15 09:45	41.9	85.9	210.0	2.1	29.82	44.5	844.0	13.00	-40.0	0	0.1	43.4	48.1	0	29	0	0	0	47.1	47.8	0.0
2018 09/15 10:00	43.2	84.4	270.9	1.5	29.82	44.6	844.0	13.02	-40.0	0	0.2	44.3	48.7	0	29	0	0	0	47.1	47.8	0.0
2018 09/15 10:15	42.0	87.6	314.4	5.8	29.82	44.6	833.0	12.99	-39.9	0	0.2	45.2	48.6	0	29	0	0	0	47.1	47.8	0.0
2018 09/15 10:30	42.6	88.3	296.4	5.3	29.82	44.6	842.0	13.00	-39.9	0	0.2	45.2	48.5	0	29	0	0	0	47.1	47.8	0.0
2018 09/15 10:45	43.1	85.7	237.3	5.6	29.82	44.7	865.0	13.01	-40.0	0	0.1	45.2	49.3	0	29	0	0	0	47.1	47.8	0.0
2018 09/15 11:00	44.4	79.3	200.5	2.5	29.83	44.9	864.0	13.02	-39.9	0	0.2	46.1	49.8	0	29	0	0	0	47.1	47.8	0.0
2018 09/15 11:15	45.1	76.5	253.3	6.8	29.82	44.8	862.0	13.01	-39.9	0	-0.4	48.8	51.6	0	29	0	0	0	47.1	47.8	0.0
2018 09/15 11:30	45.1	75.3	197.2	6.9	29.82	45.0	882.0	13.00	-40.2	0	0.0	49.7	51.9	0	29	0	0	0	47.1	47.8	0.0
2018 09/15 11:45	45.4	75.0	12.1	6.8	29.82	45.1	875.0	13.00	-39.9	0	-0.4	47.9	52.1	0	29	0	0	0	47.1	47.8	0.0
2018 09/15 12:00	44.3	76.8	276.4	11.2	29.82	45.1	876.0	13.00	-39.9	0	0.0	47.9	52.6	0	29	0	0	0	47.1	47.8	0.0
2018 09/15 12:15	44.3	76.5	157.5	8.5	29.82	45.3	883.0	13.01	-40.0	0	-0.3	47.0	53.4	0	29	0	0	0	47.1	47.8	0.0
2018 09/15 12:30	44.4	76.7	132.8	7.4	29.82	45.5	865.0	13.01	-40.1	0	-0.3	47.9	52.5	0	29	0	0	0	47.1	47.8	0.0
2018 09/15 12:45	45.3	74.5	202.0	8.3	29.82	45.6	884.0	13.00	-39.8	0	-0.2	49.7	54.0	0	29	0	0	0	47.1	47.8	0.0
2018 09/15 13:00	46.0	72.4	354.3	7.8	29.83	45.7	871.0	13.01	-39.9	0	0.4	49.7	54.7	0	29	0	0	0	47.1	47.8	0.0
2018 09/15 13:15	44.4	77.0	94.9	10.5	29.84	45.9	831.0	13.03	-40.0	0	-0.3	47.0	54.1	0	29	0	0	0	47.1	47.8	0.0
2018 09/15 13:30	44.0	78.3	240.4	17.8	29.84	46.0	808.0	13.01	-39.9	0	0.2	47.0	53.3	0	29	0	0	0	47.1	47.8	0.0
2018 09/15 13:45	43.3	78.6	264.2	17.4	29.84	46.1	802.0	13.01	-39.8	0	0.1	47.0	52.3	0	29	0	0	0	47.1	47.8	0.0
2018 09/15 14:00	42.8	80.6	238.8	10.9	29.85	46.3	796.0	13.00	-40.0	0	0.2	46.1	51.2	0	29	0	0	0	47.1	47.8	0.0
2018 09/15 14:15	44.4	76.2	239.1	10.8	29.85	46.5	801.0	13.02	-40.0	0	0.2	46.1	51.4	0	29	0	0	0	47.1	47.8	0.0
2018 09/15 14:30	42.8	81.7	257.8	10.2	29.85	46.5	817.0	13.00	-40.0	0	0.3	45.2	51.5	0	29	0	0	0	47.1	47.8	0.0
2018 09/15 14:45	43.3	81.4	204.0	14.2	29.85	46.7	853.0	13.00	-40.0	0	0.6	47.0	51.9	0	29	0	0	0	47.1	47.8	0.0
2018 09/15 15:00	42.6	84.8	263.6	11.4	29.86	46.8	750.0	13.00	-40.0	0	-0.0	45.2	51.1	0	29	0	0	0	47.1	47.8	0.0
2018 09/15 15:15	42.6	84.8	165.4	10.8	29.85	47.0	880.0	13.02	-39.9	0	0.4	45.2	50.8	0	29	0	0	0	47.1	47.8	0.0
2018 09/15 15:30	43.1	81.6	252.1	14.4	29.86	47.1	873.0	13.00	-40.0	0	0.0	47.0	52.1	0	29	0	0	0	47.1	47.8	0.0
2018 09/15 15:45	43.7	77.1	234.3	9.8	29.86	47.2	862.0	13.01	-40.0	0	0.2	46.1	51.9	0	29	0	0	0	47.1	47.8	0.0
2018 09/15 16:00	45.0	74.0	272.8	17.4	29.86	47.2	865.0	13.01	-40.0	0	0.4	48.8	53.1	0	29	0	0	0	47.1	47.8	0.0
2018 09/15 16:15	43.9	74.9	344.5	15.3	29.86	47.4	866.0	13.02	-40.0	0	-0.1	47.9	53.3	0	29	0	0	0	47.1	47.8	0.0
2018 09/15 16:30	43.2	75.1	306.4	19.4	29.86	47.4	846.0	13.03	-40.0	0	0.4	47.9	53.0	0	29	0	0	0	47.1	47.8	0.0
2018 09/15 16:45	44.4	70.0	233.4	20.9	29.86	47.6	823.0	13.01	-40.1	0	-0.1	46.1	53.7	0	29	0	0	0	47.1	47.8	0.0
2018 09/15 17:00	43.1	71.5	162.7	21.1	29.87	47.6	834.0	13.01	-39.9	0	-0.2	45.2	51.4	0	29	0	0	0	47.1	47.8	0.0
2018 09/15 17:15	44.3	67.3	279.1	21.3	29.87	47.8	850.0	13.00	-39.9	0	-0.1	47.0	52.0	0	29	0	0	0	47.1	47.8	0.0
2018 09/15 17:30	43.4	68.1	264.5	7.7	29.87	47.9	837.0	13.01	-40.0	0	0.0	46.1	51.1	0	29	0	0	0	47.1	47.8	0.0
2018 09/15 17:45	43.3	68.4	178.0	13.7	29.87	48.0	855.0	13.01	-40.0	0	-0.0	46.1	50.6	0	29	0	0	0	47.1	47.8	0.0
2018 09/15 18:00	42.3	70.6	208.8	15.5	29.87	48.0	826.0	13.00	-39.9	0	-0.2	44.3	49.9	0	29	0	0	0	47.1	47.8	0.0
2018 09/15 18:15	42.1	72.3	146.5	17.5	29.87	48.1	812.0	12.99	-40.0	0	0.1	43.4	49.4	0	29	0	0	0	47.1	47.8	0.0
2018 09/15 18:30	41.1	74.6	277.5	11.2	29.88	48.2	797.0	13.00	-39.9	0	0.2	42.5	48.7	0	29	0	0	0	47.1	47.8	0.0
2018 09/15 18:45	40.4	76.8	252.5	7.8	29.87	48.3	767.0	13.02	-40.0	0	0.2	41.6	47.8	0	29	0	0	0	47.1	47.8	0.0
2018 09/15 19:00	39.8	78.7	283.9	11.8	29.88	48.5	655.9	13.03	-40.0	0	0.0	40.7	47.2	0	29	0	0	0	47.1	47.8	0.0
2018 09/15 19:15	39.4	80.5	264.4	7.1	29.88	48.5	400.1	13.00	-39.9	0	0.2	39.8	46.5	0	29	0	0	0	47.1	47.8	0.0
2018 09/15 19:30	38.9	82.0	248.9	5.9	29.88	48.5	146.9	13.01	-40.0	0	0.2	38.9	46.2	0	29	0	0	0	47.1	47.8	0.0
2018 09/15 19:45	38.4	83.5	284.8	10.0	29.89	48.5	76.0	13.00	-40.0	0	0.2	38.9	45.4	0	29	0	0	0	47.1	47.8	0.0
2018 09/15 20:00	38.1	86.1	263.2	9.1	29.89	48.5	62.8	13.00	-40.1	0	0.2	38.0	44.5	0	29	0	0	0	47.1	47.8	0.0
2018 09/15 20:15	37.7	88.9	280.1	9.9	29.89	48.5	61.4	13.02	-39.8	0	0.3	37.1	43.6	0	29	0	0	0	47.1	47.8	0.0
2018 09/15 20:30	37.5	90.7	260.1	7.3	29.89	48.5	61.1	13.00	-40.0	0	0.4	37.1	42.5	0	29	0	0	0	47.1	47.8	0.0
2018 09/15 20:45	37.4	91.6	234.4	7.7	29.89	48.4	61.8	13.04	-39.9	0	0.2	37.1	41.2	0	29	0	0	0	47.1	47.8	0.0
2018 09/15 21:00	37.8	92.2	235.3	21.5	29.89	48.4	61.8	13.00	-39.8	0	0.4	37.1	41.4	0	29	0	0	0	47.1	47.8	0.0
2018 09/15 21:15	38.1	91.3	242.1	22.5	29.89	48.3	61.8	13.02	-40.0	0	0.3	38.0	41.8	0	29	0	0	0	47.1	47.8	0.0
2018 09/15 21:30	37.3	93.8	246.2	14.4	29.89	48.2	61.8	13.02	-40.0	0	0.2	38.0	42.2	0	29	0	0	0	47.1	47.8	0.0
2018 09/15 21:45	37.3	92.6	294.4	15.9	29.89	48.1	61.1	13.02	-40.0	0	0.2	38.0	41.8	0	29	0	0	0	47.1	47.8	0.0
2018 09/15 22:00	37.2	93.9	212.3	15.8	29.88	48.0	62.1	13.01	-40.0	0	0.0	38.0	43.1	0	29	0	0	0	47.1	47.8	0.0
2018 09/15 22:15	37.2	95.4	107.7	13.3	29.88	47.8	61.8	13.01	-39.9	0	0.5	37.1	42.9	0	29	0	0	0	47.1	47.8	0.0
2018 09/15 22:30	37.1	96.8	196.3	13.1	29.88	47.6	62.1	13.00	-39.9	0	0.1	38.0	43.2	0	29	0	0	0	47.1	47.8	0.0
2018 09/15 22:45	37.2	98.1	54.3	13.7	29.88	47.4	62.4	13.01	-40.0	0	0.2	38.0	43.5	0	29	0	0	0	47.1	47.8	0.0
2018 09/15 23:00	37.2	98.6	272.5	10.5	29.89	47.2	61.4	13.00	-39.8	0	0.2	38.0	43.6	0	29	0	0	0	47.1	47.8	0.0
2018 09/15 23:15	37.3	99.2	196.6	10.8	29.89	47.0	61.8	13.01	-40.0	0	0.4	38.0	43.8	0	29	0	0	0	47.1	47.8	0.0
2018 09/15 23:30	37.1	99.5	157.4	10.2	29.89	46.8	61.8	13.02	-39.9	0	0.2	38.0	43.8	0	29	0	0	0	47.1	47.8	0.0
2018 09/15 23:45	37.3	99.8	93.2	9.1	29.88	46.7	61.8	13.00	-40.0	0	0.2	38.0	43.6	0	29	0	0	0	47.1	47.8	0.0
2018 09/16 00:00	37.2	99.9	286.0	11.4	29.88	46.5	61.8	13.01	-39.9	0	0.1	38.0	43.6	0	29	0	0	0	47.1	47.8	0.0
2018 09/16 00:15	37.2	99.9	346.3	10.1	29.88	46.3	61.8	12.99	-40.0	0	0.3	38.0	43.6	0	29	0	0	0	47.1	47.8	0.0
2018 09/16 00:30	37.2	100.0	24.6	9.8	29.88	46.1	61.4	13.02	-39.9	0	0.2	38.0	43.4	0	29	0	0	0	47.1	47.8	0.0
2018 09/16 00:45	36.7	99.9	174.9	10.0	29.87	46.0	61.4	13.00	-39.9	0	0.0	38.0	43.1	0	29	0	0	0	47.1	47.8	0.0
2018 09/16 01:00	37.1	100.1	219.1	8.9	29.87	45.8	61.4	13.02	-39.9	0	0.2	38.0	43.2	0	29	0	0	0	47.1	47.8	0.0
2018 09/16 01:15	36.8	100.0	282.3	8.3	29.87	45.7	62.1	13.01	-39.9	0	-0.4	38.0	43.0	0	29	0	0	0	47.1	47.8	0.0
2018 09/16 01:30	36.9	100.0	172.9	10.0	29.87	45.5	61.8	13.01	-39.9	0	0.2	38.0	43.1	0	29	0	0	0	47.1	47.8	0.0
2018 09/16 01:45	36.7	100.0	192.8	9.5	29.87	45.4	62.1	13.00	-40.1	0	0.2	38.0	43.3	0	29	0	0	0	47.1	47.8	0.0
2018 09/16 02:00	37.0	100.2	317.0	7.1	29.87	45.2	62.4	13.02	-40.0	0	0.2	38.0	43.3	0	29	0	0	0	47.1	47.8	0.0
2018 09/16 02:15	36.6	100.0	230.4	11.8	29.87	45.1	62.4	13.00	-39.9	0	0.0	38.0	43.3	0	29	0	0	0	47.1	47.8	0.0
2018 09/16 02:30	36.6	100.2	327.1	15.5	29.86	44.9	62.4	13.01	-39.9	0	0.3	37.1	43.2	0	29	0	0	0	47.1	47.8	0.0
2018 09/16 02:45	36.6	100.0	145.5	14.0	29.85	44.7	62.4	13.02	-39.8	0	0.4	37.1	42.7	0	29	0	0	0	47.1	47.8	0.0
2018 09/16 03:00	36.6	100.1	224.8	11.1	29.85	44.6	61.8	13.02	-40.1	0	0.5	37.1	42.7	0	29	0	0	0	47.1	47.8	0.0
2018 09/16 03:15	36.7	100.1	246.5	12.9	29.85	44.5	61.8	13.00	-39.9	0	0.5	37.1	42.6	0	29	0	0	0	47.1	47.8	0.0
2018 09/16 03:30	36.4	100.4	207.4	13.1	29.85	44.3	61.4	13.01	-39.9	0	0.3	37.1	42.6	0	29	0	0	0	47.1	47.8	0.0
2018 09/16 03:45	36.6	100.3	297.0	9.2	29.84	44.2	61.8	13.00	-39.9	0	0.5	37.1	42.6	0	29	0	0	0	47.1	47.8	0.0
2018 09/16 04:00	36.6	100.4	167.8	8.5	29.84	44.1	61.8	13.01	-40.0	0	0.4	37.1	42.4	0	29	0	0	0	47.1	47.8	0.0
2018 09/16 04:15	36.4	100.4	56.7	9.1	29.84	44.0	61.8	13.00	-39.9	0	0.2	37.1	42.3	0	29	0	0	0	47.1	47.8	0.0
2018 09/16 04:30	36.4	100.5	131.7	9.7	29.83	43.9	61.8	12.99	-39.9	0	0.4	37.1	42.3	0	29	0	0	0	47.1	47.8	0.0
2018 09/16 04:45	36.5	100.3	234.6	9.1	29.83	43.8	61.1	13.00	-40.0	0	0.4	37.1	42.4	0	29	0	0	0	47.1	47.8	0.0
2018 09/16 05:00	36.5	100.5	114.5	11.1	29.83	43.7	62.1	13.00	-40.0	0	0.2	37.1	42.3	0	29	0	0	0	47.1	47.8	0.0
2018 09/16 05:15	36.4	100.4	271.9	11.5	29.83	43.6	61.8	13.00	-40.0	0	0.6	36.2	42.4	0	29	0	0	0	47.1	47.8	0.0
2018 09/16 05:30	36.4	100.5	188.6	12.0	29.83	43.5	62.1	13.00	-40.1	0	0.7	36.2	42.1	0	29	0	0	0	47.1	47.8	0.0
2018 09/16 05:45	36.2	100.5	78.6	11.3	29.83	43.4	61.8	13.00	-40.0	0	0.6	36.2	42.4	0	29	0	0	0	47.1	47.8	0.0
2018 09/16 06:00	36.1	100.5	99.5	10.0	29.83	43.2	61.8	13.00	-40.0	0	0.7	36.2	42.1	0	29	0	0	0	47.1	47.8	0.0
2018 09/16 06:15	36.4	100.5	299.5	11.1	29.83	43.2	62.1	13.03	-39.8	0	0.7	36.2	42.1	0	29	0	0	0	47.1	47.8	0.0
2018 09/16 06:30	36.1	100.5	347.2	11.9	29.83	43.1	68.6	13.00	-39.9	0	0.7	36.2	42.1	0	29	0	0	0	47.1	47.8	0.0
2018 09/16 06:45	36.0	100.4	262.9	11.1	29.82	43.0	88.2	13.00	-40.0	0	0.6	36.2	42.1	0	29	0	0	0	47.1	47.8	0.0
2018 09/16 07:00	36.1	100.5	224.4	11.8	29.84	42.9	152.7	13.00	-40.0	0	0.6	36.2	42.2	0	29	0	0	0	47.1	47.8	0.0
2018 09/16 07:15	36.1	100.6	96.4	10.5	29.83	42.8	377.4	13.00	-40.1	0	0.7	36.2	42.0	0	29	0	0	0	47.1	47.8	0.0
2018 09/16 07:30	36.0	100.5	255.1	13.4	29.83	42.6	399.1	13.01	-39.9	0	0.7	36.2	42.2	0	29	0	0	0	47.1	47.8	0.0
2018 09/16 07:45	36.1	100.5	136.8	10.2	29.84	42.5	408.6	13.01	-40.0	0	0.5	36.2	42.3	0	29	0	0	0	47.1	47.8	0.0
2018 09/16 08:00	36.2	100.5	195.8	11.9	29.84	42.4	516.9	13.02	-40.0	0	0.7	36.2	42.1	0	29	0	0	0	47.1	47.8	0.0
2018 09/16 08:15	36.2	100.5	164.3	10.8	29.84	42.4	611.2	13.00	-39.6	0	0.7	36.2	42.3	0	29	0	0	0	47.1	47.8	0.0
2018 09/16 08:30	36.2	100.6	213.7	11.9	29.85	42.3	603.1	13.00	-40.0	0	0.7	36.2	42.3	0	29	0	0	0	47.1	47.8	0.0
2018 09/16 08:45	36.2	100.5	174.3	9.3	29.85	42.2	664.2	13.02	-39.9	0	0.7	36.2	42.2	0	29	0	0	0	47.1	47.8	0.0
2018 09/16 09:00	36.4	100.5	248.2	11.7	29.85	42.1	595.3	13.02	-40.0	0	0.8	36.2	42.2	0	29	0	0	0	47.1	47.8	0.0
2018 09/16 09:15	36.4	100.6	268.6	11.1	29.86	42.1	678.1	13.02	-39.9	0	0.8	36.2	42.3	0	29	0	0	0	47.1	47.8	0.0
2018 09/16 09:30	36.6	100.5	44.7	9.9	29.86	42.0	679.8	13.02	-40.0	0	0.9	36.2	42.3	0	29	0	0	0	47.1	47.8	0.0
2018 09/16 09:45	36.6	100.5	176.6	10.5	29.87	41.9	733.0	13.00	-39.8	0	0.7	37.1	42.4	0	29	0	0	0	47.1	47.8	0.0
2018 09/16 10:00	36.7	100.5	245.5	16.0	29.88	41.9	751.0	12.99	-40.2	0	0.7	37.1	42.5	0	29	0	0	0	47.1	47.8	0.0
2018 09/16 10:15	36.9	100.5	264.5	17.3	29.88	41.8	768.0	13.00	-39.8	0	0.8	37.1	42.5	0	29	0	0	0	47.1	47.8	0.0
2018 09/16 10:30	37.0	100.5	194.2	16.2	29.89	41.8	774.0	13.01	-39.9	0	0.8	37.1	42.9	0	29	0	0	0	47.1	47.8	0.0
2018 09/16 10:45	37.1	100.5	147.9	17.8	29.90	41.7	747.0	12.99	-40.0	0	0.8	37.1	42.6	0	29	0	0	0	47.1	47.8	0.0
2018 09/16 11:00	37.0	100.5	240.5	23.4	29.90	41.7	812.0	13.01	-39.6	0	1.0	37.1	43.4	0	29	0	0	0	47.1	47.8	0.0
2018 09/16 11:15	37.5	100.5	254.8	17.5	29.91	41.7	827.0	12.99	-40.0	0	0.8	38.0	44.0	0	29	0	0	0	47.1	47.8	0.0
2018 09/16 11:30	37.6	100.5	234.6	16.5	29.91	41.7	780.0	13.01	-39.9	0	0.8	38.0	43.8	0	29	0	0	0	47.1	47.8	0.0
2018 09/16 11:45	37.8	100.6	222.6	17.6	29.91	41.7	804.0	13.00	-39.6	0	0.8	38.0	44.1	0	29	0	0	0	47.1	47.8	0.0
2018 09/16 12:00	37.8	100.5	353.0	17.4	29.92	41.7	834.0	13.00	-39.8	0	0.8	38.0	44.2	0	29	0	0	0	47.1	47.8	0.0
2018 09/16 12:15	38.2	100.5	305.5	11.8	29.91	41.7	817.0	13.01	-40.0	0	0.8	38.9	44.3	0	29	0	0	0	47.1	47.8	0.0
2018 09/16 12:30	38.4	100.6	335.7	12.5	29.92	41.7	819.0	12.99	-40.1	0	0.7	38.9	44.5	0	29	0	0	0	47.1	47.8	0.0
2018 09/16 12:45	38.7	100.5	141.3	10.9	29.92	41.7	843.0	13.00	-39.9	0	0.7	38.9	44.8	0	29	0	0	0	47.1	47.8	0.0
2018 09/16 13:00	38.6	100.6	227.8	12.5	29.93	41.7	815.0	13.02	-40.0	0	0.8	38.9	45.0	0	29	0	0	0	47.1	47.8	0.0
2018 09/16 13:15	38.7	100.7	106.1	16.9	29.93	41.8	843.0	13.00	-40.0	0	0.7	38.9	45.1	0	29	0	0	0	47.1	47.8	0.0
2018 09/16 13:30	38.7	100.6	256.7	20.9	29.93	41.8	821.0	12.99	-39.8	0	0.7	38.9	45.2	0	29	0	0	0	47.1	47.8	0.0
2018 09/16 13:45	38.9	100.7	293.1	18.1	29.93	41.8	844.0	13.01	-39.9	0	0.7	39.8	45.4	0	29	0	0	0	47.1	47.8	0.0
2018 09/16 14:00	38.4	100.6	310.4	17.8	29.94	41.9	798.0	13.02	-39.9	0	0.8	38.9	45.2	0	29	0	0	0	47.1	47.8	0.0
2018 09/16 14:15	38.3	100.6	171.3	18.9	29.94	41.9	779.0	13.00	-39.9	0	0.9	38.9	45.1	0	29	0	0	0	47.1	47.8	0.0
2018 09/16 14:30	38.7	100.6	277.9	13.5	29.95	42.0	787.0	13.00	-39.8	0	0.9	38.9	45.1	0	29	0	0	0	47.1	47.8	0.0
2018 09/16 14:45	38.7	100.6	247.3	16.2	29.95	42.0	848.0	13.00	-40.0	0	0.9	38.9	45.2	0	29	0	0	0	47.1	47.8	0.0
2018 09/16 15:00	38.7	100.5	243.7	21.8	29.95	42.1	758.0	13.00	-40.0	0	0.8	38.9	45.3	0	29	0	0	0	47.1	47.8	0.0
2018 09/16 15:15	38.8	100.7	11.0	17.5	29.96	42.1	814.0	13.00	-40.0	0	0.7	39.8	45.3	0	29	0	0	0	47.1	47.8	0.0
2018 09/16 15:30	38.8	100.7	230.7	16.2	29.96	42.2	786.0	13.01	-39.9	0	0.9	39.8	46.0	0	29	0	0	0	47.1	47.8	0.0
2018 09/16 15:45	39.2	100.7	181.4	8.5	29.96	42.2	806.0	13.00	-40.2	0	0.6	39.8	45.8	0	29	0	0	0	47.1	47.8	0.0
2018 09/16 16:00	39.7	100.7	121.2	10.4	29.96	42.2	825.0	13.00	-40.0	0	0.6	40.7	47.2	0	29	0	0	0	47.1	47.8	0.0
2018 09/16 16:15	39.7	100.6	172.1	11.5	29.96	42.2	835.0	13.00	-40.1	0	0.7	40.7	47.1	0	29	0	0	0	47.1	47.8	0.0
2018 09/16 16:30	39.3	100.7	213.5	12.4	29.97	42.3	810.0	12.99	-40.1	0	0.6	40.7	46.9	0	29	0	0	0	47.1	47.8	0.0
2018 09/16 16:45	39.4	100.7	217.1	8.7	29.97	42.4	745.0	13.01	-40.0	0	0.7	40.7	46.9	0	29	0	0	0	47.1	47.8	0.0
2018 09/16 17:00	39.8	100.6	217.6	9.2	29.98	42.4	783.0	13.02	-40.0	0	0.5	41.6	47.1	0	29	0	0	0	47.1	47.8	0.0
2018 09/16 17:15	39.7	100.7	298.0	13.8	29.97	42.5	704.0	12.99	-39.9	0	0.8	40.7	47.0	0	29	0	0	0	47.1	47.8	0.0
2018 09/16 17:30	39.5	100.7	184.5	12.7	29.97	42.5	640.4	13.00	-39.9	0	0.9	39.8	46.3	0	29	0	0	0	47.1	47.8	0.0
2018 09/16 17:45	39.5	100.7	168.6	14.5	29.98	42.6	556.9	13.03	-40.1	0	0.8	39.8	46.2	0	29	0	0	0	47.1	47.8	0.0
2018 09/16 18:00	39.3	100.7	247.1	10.6	29.98	42.6	441.2	13.01	-39.9	0	0.7	39.8	45.6	0	29	0	0	0	47.1	47.8	0.0
2018 09/16 18:15	39.5	100.8	289.8	11.7	29.98	42.8	388.3	13.02	-39.9	0	0.7	39.8	45.3	0	29	0	0	0	47.1	47.8	0.0
2018 09/16 18:30	39.7	100.7	270.5	10.6	29.98	42.8	504.7	13.02	-40.0	0	0.7	39.8	44.9	0	29	0	0	0	47.1	47.8	0.0
2018 09/16 18:45	39.5	100.8	273.8	12.9	29.98	42.9	343.1	13.00	-39.9	0	0.7	38.9	44.4	0	29	0	0	0	47.1	47.8	0.0
2018 09/16 19:00	39.4	100.7	268.7	10.6	29.99	42.9	237.2	12.99	-39.9	0	0.8	38.9	44.7	0	29	0	0	0	47.1	47.8	0.0
2018 09/16 19:15	39.2	100.9	262.1	9.9	29.99	43.0	106.2	13.02	-39.9	0	0.7	38.9	44.5	0	29	0	0	0	47.1	47.8	0.0
2018 09/16 19:30	39.3	100.8	249.3	9.7	29.99	43.0	84.2	13.00	-39.9	0	0.8	38.9	44.5	0	29	0	0	0	47.1	47.8	0.0
2018 09/16 19:45	38.9	100.7	298.0	15.5	29.99	43.0	63.1	12.99	-39.9	0	0.7	38.9	44.7	0	29	0	0	0	47.1	47.8	0.0
2018 09/16 20:00	38.9	100.7	260.7	10.7	29.99	43.1	62.1	13.02	-40.0	0	0.7	38.9	44.4	0	29	0	0	0	47.1	47.8	0.0
2018 09/16 20:15	38.8	100.7	285.0	14.8	29.99	43.1	62.1	13.02	-39.8	0	0.7	38.9	44.2	0	29	0	0	0	47.1	47.8	0.0
2018 09/16 20:30	38.7	100.7	250.8	12.4	30.00	43.1	61.8	13.00	-40.0	0	0.6	38.9	44.2	0	29	0	0	0	47.1	47.8	0.0
2018 09/16 20:45	38.9	100.7	292.3	12.1	30.00	43.1	61.8	13.01	-40.0	0	0.7	38.9	44.1	0	29	0	0	0	47.1	47.8	0.0
2018 09/16 21:00	38.2	100.7	277.4	11.4	30.00	43.1	61.1	13.01	-40.0	0	0.6	38.9	44.0	0	29	0	0	0	47.1	47.8	0.0
2018 09/16 21:15	38.3	100.7	278.2	10.9	30.00	43.1	61.8	13.00	-39.6	0	0.7	38.0	43.9	0	29	0	0	0	47.1	47.8	0.0
2018 09/16 21:30	38.3	100.7	277.2	9.9	30.01	43.1	62.1	13.02	-39.8	0	0.8	38.0	43.8	0	29	0	0	0	47.1	47.8	0.0
2018 09/16 21:45	38.0	100.6	285.8	8.8	30.00	43.1	61.8	13.02	-40.0	0	0.7	38.0	43.4	0	29	0	0	0	47.1	47.8	0.0
2018 09/16 22:00	37.5	100.7	276.5	12.0	30.01	43.1	62.1	13.00	-40.0	0	0.8	37.1	43.2	0	29	0	0	0	47.1	47.8	0.0
2018 09/16 22:15	37.7	100.7	288.8	12.9	30.00	43.2	62.1	13.00	-40.0	0	0.7	37.1	43.2	0	29	0	0	0	47.1	47.8	0.0
2018 09/16 22:30	37.5	100.6	280.7	13.2	30.00	43.2	62.1	13.00	-40.1	0	0.6	37.1	43.2	0	29	0	0	0	47.1	47.8	0.0
2018 09/16 22:45	36.9	100.7	279.3	12.6	30.00	43.2	61.8	13.00	-39.9	0	0.6	37.1	43.0	0	29	0	0	0	47.1	47.8	0.0
2018 09/16 23:00	36.7	100.6	280.6	13.9	30.00	43.2	61.8	13.00	-40.0	0	0.7	37.1	42.9	0	29	0	0	0	47.1	47.8	0.0
2018 09/16 23:15	36.6	100.5	275.5	9.8	30.00	43.2	62.1	13.00	-39.9	0	0.6	37.1	43.1	0	29	0	0	0	47.1	47.8	0.0
2018 09/16 23:30	36.9	100.7	284.6	3.6	30.01	43.2	61.4	13.01	-39.9	0	0.5	37.1	43.0	0	29	0	0	0	47.1	47.8	0.0
2018 09/16 23:45	37.0	100.6	277.3	7.4	30.00	43.2	61.8	13.00	-40.0	0	0.7	36.2	42.9	0	29	0	0	0	47.1	47.8	0.0
2018 09/17 00:00	36.7	100.7	260.7	7.5	30.00	43.2	62.1	12.99	-40.2	0	0.7	36.2	42.4	0	29	0	0	0	47.1	47.8	0.0
2018 09/17 00:15	36.5	100.7	268.6	4.4	30.00	43.2	62.1	13.02	-40.1	0	0.7	36.2	42.2	0	29	0	0	0	47.1	47.8	0.0
2018 09/17 00:30	37.3	100.7	234.0	4.6	30.00	43.2	62.1	13.01	-40.0	0	0.6	36.2	41.6	0	29	0	0	0	47.1	47.8	0.0
2018 09/17 00:45	37.3	100.7	275.2	9.2	30.00	43.1	62.1	13.00	-39.9	0	0.7	35.3	39.9	0	29	0	0	0	47.1	47.8	0.0
2018 09/17 01:00	36.7	100.6	278.3	8.0	30.00	43.1	62.1	13.02	-39.8	0	0.6	36.2	39.6	0	29	0	0	0	47.1	47.8	0.0
2018 09/17 01:15	36.6	100.7	292.6	7.5	30.00	43.1	62.5	13.02	-39.9	0	0.5	36.2	39.1	0	29	0	0	0	47.1	47.8	0.0
2018 09/17 01:30	36.7	100.5	292.1	6.5	30.00	43.1	62.5	13.01	-39.9	0	0.4	36.2	38.1	0	29	0	0	0	47.1	47.8	0.0
2018 09/17 01:45	36.7	100.7	295.4	6.7	30.00	43.1	62.8	13.01	-40.1	0	0.5	35.3	37.0	0	29	0	0	0	47.1	47.8	0.0
2018 09/17 02:00	37.1	100.6	298.5	4.4	30.00	43.1	62.5	13.00	-40.1	0	0.4	35.3	35.9	0	29	0	0	0	47.1	47.8	0.0
2018 09/17 02:15	37.3	100.7	298.9	2.4	30.00	43.0	63.1	13.02	-40.1	0	0.3	35.3	35.7	0	29	0	0	0	47.1	47.8	0.0
2018 09/17 02:30	37.2	100.5	300.1	0.0	29.99	43.0	62.5	12.99	-39.6	0	0.2	34.4	34.8	0	29	0	0	0	47.1	47.8	0.0
2018 09/17 02:45	37.5	100.7	61.2	0.0	29.99	43.0	62.1	13.00	-39.8	0	0.6	33.5	34.2	0	29	0	0	0	47.1	47.8	0.0
2018 09/17 03:00	37.5	100.7	44.9	3.9	29.99	43.0	61.8	13.00	-39.9	0	0.3	34.4	33.7	0	29	0	0	0	47.1	47.8	0.0
2018 09/17 03:15	38.1	100.6	82.3	3.1	29.98	43.0	62.5	13.01	-40.2	0	0.4	34.4	33.6	0	29	0	0	0	47.1	47.8	0.0
2018 09/17 03:30	39.0	98.9	107.5	2.6	29.98	42.9	62.1	13.00	-40.1	0	0.7	34.4	33.2	0	29	0	0	0	47.1	47.8	0.0
2018 09/17 03:45	38.6	97.2	101.9	3.5	29.98	42.9	61.8	13.00	-39.9	0	0.8	34.4	32.6	0	29	0	0	0	47.1	47.8	0.0
2018 09/17 04:00	37.0	99.0	58.1	8.5	29.97	42.9	61.8	13.02	-40.0	0	0.6	34.4	32.5	0	29	0	0	0	47.1	47.8	0.0
2018 09/17 04:15	36.5	99.7	80.6	7.2	29.97	42.8	61.8	13.01	-40.0	0	0.6	34.4	32.4	0	29	0	0	0	47.1	47.8	0.0
2018 09/17 04:30	36.5	100.3	114.5	6.5	29.97	42.8	61.8	13.01	-39.9	0	0.6	34.4	32.6	0	29	0	0	0	47.1	47.8	0.0
2018 09/17 04:45	36.2	100.4	97.1	11.2	29.97	42.8	62.1	13.02	-40.1	0	0.4	34.4	32.8	0	29	0	0	0	47.1	47.8	0.0
2018 09/17 05:00	36.0	100.6	70.8	10.2	29.97	42.6	61.1	13.02	-39.9	0	0.6	34.4	32.6	0	29	0	0	0	47.1	47.8	0.0
2018 09/17 05:15	36.1	100.5	104.9	7.4	29.97	42.6	61.8	13.00	-40.0	0	0.6	34.4	32.7	0	29	0	0	0	47.1	47.8	0.0
2018 09/17 05:30	36.1	100.7	83.1	8.2	29.96	42.6	61.8	13.00	-39.9	0	0.6	34.4	33.1	0	29	0	0	0	47.1	47.8	0.0
2018 09/17 05:45	35.9	100.8	88.6	9.8	29.96	42.6	61.8	12.99	-40.0	0	0.7	34.4	33.7	0	29	0	0	0	47.1	47.8	0.0
2018 09/17 06:00	35.8	100.8	70.0	10.4	29.97	42.5	62.1	12.99	-40.1	0	0.4	35.3	34.3	0	29	0	0	0	47.1	47.8	0.0
2018 09/17 06:15	35.9	100.8	76.2	10.6	29.96	42.5	62.5	13.02	-39.9	0	0.4	35.3	34.5	0	29	0	0	0	47.1	47.8	0.0
2018 09/17 06:30	35.8	100.8	64.0	9.4	29.96	42.5	75.3	13.01	-39.9	0	0.6	35.3	34.9	0	29	0	0	0	47.1	47.8	0.0
2018 09/17 06:45	35.8	100.7	73.8	8.6	29.96	42.4	132.7	13.01	-39.8	0	0.4	35.3	35.5	0	29	0	0	0	47.1	47.8	0.0
2018 09/17 07:00	35.9	100.8	67.2	11.4	29.96	42.4	367.6	13.00	-39.9	0	0.6	35.3	36.8	0	29	0	0	0	47.1	47.8	0.0
2018 09/17 07:15	35.6	100.8	71.7	11.7	29.97	42.4	544.0	13.02	-39.9	0	0.5	35.3	39.1	0	29	0	0	0	47.1	47.8	0.0
2018 09/17 07:30	35.6	100.9	74.8	10.4	29.97	42.3	659.4	13.00	-39.9	0	0.4	36.2	40.2	0	29	0	0	0	47.1	47.8	0.0
2018 09/17 07:45	35.8	100.7	110.7	12.8	29.97	42.3	734.0	13.00	-39.9	0	0.5	36.2	40.7	0	29	0	0	0	47.1	47.8	0.0
2018 09/17 08:00	35.8	100.8	84.9	14.5	29.97	42.3	774.0	13.00	-39.9	0	0.6	36.2	41.3	0	29	0	0	0	47.1	47.8	0.0
2018 09/17 08:15	36.1	100.8	108.1	13.9	29.97	42.3	764.0	12.99	-39.9	0	0.6	36.2	41.6	0	29	0	0	0	47.1	47.8	0.0
2018 09/17 08:30	36.1	100.8	122.0	18.6	29.97	42.3	784.0	12.99	-40.1	0	0.4	37.1	42.1	0	29	0	0	0	47.1	47.8	0.0
2018 09/17 08:45	36.6	100.7	82.8	14.5	29.96	42.2	812.0	13.00	-39.9	0	0.7	37.1	42.6	0	29	0	0	0	47.1	47.8	0.0
2018 09/17 09:00	37.0	100.7	113.4	13.8	29.96	42.2	825.0	12.98	-39.8	0	0.6	38.0	43.0	0	29	0	0	0	47.1	47.8	0.0
2018 09/17 09:15	38.1	100.7	107.9	10.7	29.97	42.2	848.0	13.02	-39.9	0	0.7	38.0	43.5	0	29	0	0	0	47.1	47.8	0.0
2018 09/17 09:30	38.0	100.7	114.8	11.2	29.97	42.3	839.0	13.00	-39.9	0	0.7	38.9	44.2	0	29	0	0	0	47.1	47.8	0.0
2018 09/17 09:45	37.7	100.8	120.0	15.7	29.97	42.3	842.0	13.00	-40.1	0	0.7	39.8	44.5	0	29	0	0	0	47.1	47.8	0.0
2018 09/17 10:00	38.4	100.8	77.0	12.2	29.97	42.3	829.0	13.01	-40.0	0	0.7	39.8	44.9	0	29	0	0	0	47.1	47.8	0.0
2018 09/17 10:15	40.6	100.9	90.1	12.5	29.98	42.4	856.0	13.01	-39.9	0	0.6	40.7	45.3	0	29	0	0	0	47.1	47.8	0.0
2018 09/17 10:30	40.1	100.8	92.0	11.7	29.98	42.5	845.0	13.01	-40.0	0	0.6	41.6	45.9	0	29	0	0	0	47.1	47.8	0.0
2018 09/17 10:45	40.1	100.9	70.4	12.0	29.98	42.5	857.0	13.00	-40.0	0	0.4	44.3	47.8	0	29	0	0	0	47.1	47.8	0.0
2018 09/17 11:00	40.8	101.0	101.1	10.6	29.98	42.6	862.0	13.02	-40.0	0	0.2	46.1	48.1	0	29	0	0	0	47.1	47.8	0.0
2018 09/17 11:15	42.0	101.0	74.9	9.1	29.99	42.8	847.0	13.01	-39.9	0	0.6	45.2	49.4	0	29	0	0	0	47.1	47.8	0.0
2018 09/17 11:30	42.4	100.0	69.5	9.2	29.99	43.0	850.0	13.01	-39.9	0	0.5	46.1	49.5	0	29	0	0	0	47.1	47.8	0.0
2018 09/17 11:45	43.2	96.9	72.4	7.7	29.99	43.1	822.0	13.00	-40.0	0	0.6	47.0	50.7	0	29	0	0	0	47.1	47.8	0.0
2018 09/17 12:00	44.8	95.2	42.9	6.2	29.99	43.2	853.0	13.02	-40.0	0	0.9	47.9	51.1	0	29	0	0	0	47.1	47.8	0.0
2018 09/17 12:15	44.5	95.4	84.1	4.5	29.99	43.4	841.0	13.02	-39.6	0	1.1	47.9	51.7	0	29	0	0	0	47.1	47.8	0.0
2018 09/17 12:30	46.3	90.9	161.2	5.3	29.99	43.6	847.0	13.00	-39.6	0	0.5	49.7	52.9	0	29	0	0	0	47.1	47.8	0.0
2018 09/17 12:45	48.0	80.6	186.2	4.8	29.99	43.8	838.0	13.01	-39.9	0	0.4	49.7	53.8	0	29	0	0	0	47.1	47.8	0.0
2018 09/17 13:00	49.4	77.3	155.3	5.8	29.99	44.0	863.0	13.01	-40.0	0	0.5	51.5	56.2	0	29	0	0	0	47.1	47.8	0.0
2018 09/17 13:15	49.8	66.7	188.2	6.4	29.99	44.2	848.0	13.01	-39.9	0	0.9	53.3	56.2	0	29	0	0	0	47.1	47.8	0.0
2018 09/17 13:30	50.6	69.8	281.3	3.2	30.00	44.4	863.0	13.02	-40.0	0	-0.6	56.0	58.4	0	29	0	0	0	47.1	47.8	0.0
2018 09/17 13:45	50.3	66.0	100.7	10.5	29.99	44.6	860.0	13.02	-39.8	0	0.1	56.9	57.8	0	29	0	0	0	47.1	47.8	0.0
2018 09/17 14:00	51.4	58.4	160.1	6.7	29.99	44.9	861.0	13.04	-39.9	0	0.3	56.9	58.0	0	29	0	0	0	47.1	47.8	0.0
2018 09/17 14:15	51.8	64.8	174.5	6.2	30.00	45.0	862.0	13.00	-39.9	0	0.0	57.8	59.2	0	29	0	0	0	47.1	47.8	0.0
2018 09/17 14:30	51.0	63.8	288.5	6.2	29.99	45.3	861.0	13.02	-39.8	0	-0.3	56.9	59.8	0	29	0	0	0	47.1	47.8	0.0
2018 09/17 14:45	53.8	57.4	168.2	8.6	29.99	45.5	858.0	13.00	-40.1	0	-0.2	56.9	59.4	0	29	0	0	0	47.1	47.8	0.0
2018 09/17 15:00	53.0	64.9	298.6	5.3	30.00	45.7	867.0	13.01	-40.0	0	-0.5	56.9	58.9	0	29	0	0	0	47.1	47.8	0.0
2018 09/17 15:15	52.0	57.6	264.5	9.9	30.00	45.9	856.0	13.02	-39.9	0	-0.1	56.0	59.5	0	29	0	0	0	47.1	47.8	0.0
2018 09/17 15:30	52.4	61.3	299.8	6.6	30.00	46.2	871.0	13.02	-39.8	0	-0.6	57.8	59.6	0	29	0	0	0	47.1	47.8	0.0
2018 09/17 15:45	53.0	58.4	187.5	6.5	30.00	46.5	868.0	13.00	-39.6	0	-0.1	56.0	59.7	0	29	0	0	0	47.1	47.8	0.0
2018 09/17 16:00	52.1	59.5	246.3	11.3	30.01	46.7	862.0	13.02	-39.9	0	-0.6	56.0	59.6	0	29	0	0	0	47.1	47.8	0.0
2018 09/17 16:15	52.6	60.5	309.0	10.4	30.01	47.1	867.0	13.02	-40.0	0	-0.2	56.0	60.1	0	29	0	0	0	47.1	47.8	0.0
2018 09/17 16:30	52.1	72.3	223.3	6.8	30.01	47.4	877.0	13.00	-40.1	0	-0.4	54.2	58.2	0	29	0	0	0	47.1	47.8	0.0
2018 09/17 16:45	51.9	70.8	294.2	6.9	30.02	47.8	855.0	13.01	-40.0	0	-0.2	53.3	57.5	0	29	0	0	0	47.1	47.8	0.0
2018 09/17 17:00	51.6	73.4	314.4	7.2	30.02	48.0	856.0	13.02	-40.0	0	0.2	51.5	56.6	0	29	0	0	0	47.1	47.8	0.0
2018 09/17 17:15	50.9	76.9	84.2	4.6	30.03	48.4	866.0	13.02	-40.0	0	-0.2	52.4	57.5	0	29	0	0	0	47.1	47.8	0.0
2018 09/17 17:30	49.5	78.7	283.6	9.4	30.03	48.8	808.0	13.00	-39.9	0	0.1	50.6	56.2	0	29	0	0	0	47.1	47.8	0.0
2018 09/17 17:45	48.8	81.7	234.2	8.5	30.04	49.1	828.0	13.02	-39.9	0	-0.1	50.6	55.3	0	29	0	0	0	47.1	47.8	0.0
2018 09/17 18:00	48.2	83.4	292.5	8.6	30.04	49.5	806.0	13.01	-39.6	0	-0.3	49.7	55.0	0	29	0	0	0	47.1	47.8	0.0
2018 09/17 18:15	47.1	86.8	309.6	9.4	30.04	49.7	801.0	13.02	-40.0	0	-0.0	48.8	54.2	0	29	0	0	0	47.1	47.8	0.0
2018 09/17 18:30	46.6	89.6	308.9	8.1	30.05	50.1	807.0	13.01	-40.0	0	-0.2	48.8	53.9	0	29	0	0	0	47.1	47.8	0.0
2018 09/17 18:45	46.1	90.7	306.6	8.1	30.05	50.3	799.0	13.03	-39.9	0	-0.1	47.0	53.2	0	29	0	0	0	47.1	47.8	0.0
2018 09/17 19:00	45.5	94.7	299.3	5.6	30.06	50.5	555.7	13.01	-40.0	0	-0.1	46.1	52.2	0	29	0	0	0	47.1	47.8	0.0
2018 09/17 19:15	45.7	88.1	210.3	0.1	30.06	50.7	365.4	13.02	-39.9	0	-0.0	45.2	51.2	0	29	0	0	0	47.1	47.8	0.0
2018 09/17 19:30	46.1	87.4	190.1	2.1	30.06	51.0	93.3	13.01	-39.9	0	-0.3	44.3	50.5	0	29	0	0	0	47.1	47.8	0.0
2018 09/17 19:45	46.1	87.2	269.7	3.3	30.06	51.2	66.8	13.01	-39.9	0	0.2	44.3	49.6	0	29	0	0	0	47.1	47.8	0.0
2018 09/17 20:00	45.6	89.8	87.4	0.0	30.07	51.4	61.1	13.01	-40.0	0	-0.2	43.4	48.6	0	29	0	0	0	47.1	47.8	0.0
2018 09/17 20:15	45.0	91.1	87.3	6.8	30.07	51.4	60.7	13.00	-40.0	0	-0.3	43.4	48.0	0	29	0	0	0	47.1	47.8	0.0
2018 09/17 20:30	44.0	95.2	105.8	5.4	30.07	51.6	61.1	13.03	-40.1	0	-0.0	43.4	47.5	0	29	0	0	0	47.1	47.8	0.0
2018 09/17 20:45	45.0	80.8	86.4	10.4	30.08	51.6	61.1	13.01	-40.0	0	0.2	43.4	47.1	0	29	0	0	0	47.1	47.8	0.0
2018 09/17 21:00	44.6	79.9	81.2	11.1	30.08	51.6	61.4	13.00	-40.1	0	0.2	42.5	46.3	0	29	0	0	0	47.1	47.8	0.0
2018 09/17 21:15	44.3	83.3	79.3	9.5	30.08	51.6	61.8	13.00	-40.1	0	0.4	42.5	45.6	0	29	0	0	0	47.1	47.8	0.0
2018 09/17 21:30	43.7	79.9	91.0	12.1	30.08	51.7	60.7	13.02	-40.0	0	0.2	42.5	45.0	0	29	0	0	0	47.1	47.8	0.0
2018 09/17 21:45	43.5	78.9	67.7	12.1	30.08	51.6	61.1	13.03	-40.0	0	0.1	42.5	44.7	0	29	0	0	0	47.1	47.8	0.0
2018 09/17 22:00	43.0	79.3	68.6	14.7	30.08	51.6	61.1	13.02	-40.0	0	0.2	42.5	43.5	0	29	0	0	0	47.1	47.8	0.0
2018 09/17 22:15	42.8	80.9	73.6	15.3	30.07	51.6	61.8	13.02	-40.0	0	0.1	41.6	44.0	0	29	0	0	0	47.1	47.8	0.0
2018 09/17 22:30	42.6	80.8	68.1	17.9	30.07	51.5	61.8	13.02	-40.1	0	0.2	41.6	43.4	0	29	0	0	0	47.1	47.8	0.0
2018 09/17 22:45	42.1	83.6	83.9	15.9	30.07	51.4	60.4	13.00	-39.9	0	0.2	40.7	43.6	0	29	0	0	0	47.1	47.8	0.0
2018 09/17 23:00	41.6	85.4	70.4	15.9	30.06	51.4	61.1	13.01	-39.9	0	0.2	40.7	45.2	0	29	0	0	0	47.1	47.8	0.0
2018 09/17 23:15	41.5	86.0	64.7	16.2	30.06	51.2	61.1	13.02	-39.9	0	0.1	40.7	45.1	0	29	0	0	0	47.1	47.8	0.0
2018 09/17 23:30	41.0	86.0	83.9	13.1	30.06	51.1	61.8	13.02	-39.9	0	0.2	40.7	45.1	0	29	0	0	0	47.1	47.8	0.0
2018 09/17 23:45	41.4	85.4	57.3	12.1	30.06	51.0	62.1	13.03	-40.2	0	0.5	39.8	43.8	0	29	0	0	0	47.1	47.8	0.0
2018 09/18 00:00	41.5	84.5	68.8	14.5	30.06	50.7	61.1	13.02	-40.0	0	0.3	39.8	42.6	0	29	0	0	0	47.1	47.8	0.0
2018 09/18 00:15	41.2	84.5	70.0	14.6	30.06	50.7	61.8	13.00	-39.9	0	-0.0	39.8	42.4	0	29	0	0	0	47.1	47.8	0.0
2018 09/18 00:30	41.0	85.8	76.2	12.1	30.06	50.5	60.7	13.00	-40.0	0	0.2	39.8	41.6	0	29	0	0	0	47.1	47.8	0.0
2018 09/18 00:45	40.6	86.5	72.8	12.7	30.05	50.3	61.4	13.01	-40.0	0	0.0	39.8	41.4	0	29	0	0	0	47.1	47.8	0.0
2018 09/18 01:00	40.6	86.5	58.6	11.7	30.05	50.1	61.4	13.02	-40.0	0	0.1	39.8	41.4	0	29	0	0	0	47.1	47.8	0.0
2018 09/18 01:15	40.5	86.0	83.3	10.5	30.05	50.1	61.8	12.99	-39.6	0	-0.5	39.8	40.8	0	29	0	0	0	47.1	47.8	0.0
2018 09/18 01:30	40.4	86.0	68.5	11.9	30.04	49.9	61.8	13.02	-40.1	0	-0.2	39.8	40.9	0	29	0	0	0	47.1	47.8	0.0
2018 09/18 01:45	40.9	84.9	105.1	14.9	30.03	49.7	61.8	13.00	-40.0	0	0.4	39.8	40.7	0	29	0	0	0	47.1	47.8	0.0
2018 09/18 02:00	40.7	85.0	113.3	11.8	30.04	49.5	61.8	13.00	-40.0	0	0.2	39.8	42.0	0	29	0	0	0	47.1	47.8	0.0
2018 09/18 02:15	40.5	85.4	90.7	11.5	30.03	49.4	62.1	13.02	-39.8	0	0.0	39.8	42.3	0	29	0	0	0	47.1	47.8	0.0
2018 09/18 02:30	40.5	84.6	78.1	11.2	30.03	49.3	61.8	13.00	-40.0	0	-0.1	39.8	41.6	0	29	0	0	0	47.1	47.8	0.0
2018 09/18 02:45	40.3	84.4	87.3	11.3	30.03	49.1	61.4	13.01	-39.9	0	-0.4	38.9	41.5	0	29	0	0	0	47.1	47.8	0.0
2018 09/18 03:00	40.4	83.5	65.4	12.8	30.02	48.9	60.4	13.01	-40.0	0	0.3	38.9	40.5	0	29	0	0	0	47.1	47.8	0.0
2018 09/18 03:15	40.4	83.2	84.2	11.7	30.02	48.7	61.4	13.02	-40.0	0	0.0	38.9	40.0	0	29	0	0	0	47.1	47.8	0.0
2018 09/18 03:30	40.3	83.6	120.5	9.8	30.01	48.5	61.8	13.00	-39.9	0	0.1	38.9	39.4	0	29	0	0	0	47.1	47.8	0.0
2018 09/18 03:45	40.3	83.4	82.9	5.6	30.01	48.3	61.4	13.02	-39.8	0	0.2	38.9	39.0	0	29	0	0	0	47.1	47.8	0.0
2018 09/18 04:00	40.3	83.1	105.0	5.5	30.01	48.2	61.1	13.02	-40.0	0	0.2	38.0	37.7	0	29	0	0	0	47.1	47.8	0.0
2018 09/18 04:15	40.8	81.6	68.0	6.8	30.01	48.0	62.1	13.02	-40.2	0	0.0	38.0	37.3	0	29	0	0	0	47.1	47.8	0.0
2018 09/18 04:30	41.6	79.1	115.8	6.1	30.01	47.8	61.8	13.02	-39.8	0	0.2	38.0	36.3	0	29	0	0	0	47.1	47.8	0.0
2018 09/18 04:45	41.7	78.2	140.3	6.2	30.01	47.7	61.4	13.02	-40.0	0	0.0	38.0	35.3	0	29	0	0	0	47.1	47.8	0.0
2018 09/18 05:00	41.6	77.5	120.0	9.2	30.00	47.5	61.8	13.01	-39.6	0	-0.1	37.1	35.0	0	29	0	0	0	47.1	47.8	0.0
2018 09/18 05:15	41.2	78.0	135.8	7.1	30.00	47.4	61.8	13.02	-39.9	0	0.4	37.1	34.6	0	29	0	0	0	47.1	47.8	0.0
2018 09/18 05:30	41.1	78.8	110.4	4.6	30.00	47.2	61.4	13.02	-39.9	0	0.0	35.3	34.4	0	29	0	0	0	47.1	47.8	0.0
2018 09/18 05:45	40.6	79.5	125.7	5.8	30.00	47.2	61.1	13.00	-39.9	0	-0.0	35.3	34.0	0	29	0	0	0	47.1	47.8	0.0
2018 09/18 06:00	40.8	80.6	126.5	3.3	30.00	47.0	61.4	13.02	-40.0	0	0.0	35.3	34.0	0	29	0	0	0	47.1	47.8	0.0
2018 09/18 06:15	40.6	80.1	130.9	4.8	30.01	46.8	62.4	13.01	-39.9	0	0.1	36.2	34.8	0	29	0	0	0	47.1	47.8	0.0
2018 09/18 06:30	40.1	82.0	105.3	3.6	30.01	46.7	77.4	13.01	-39.8	0	-0.6	36.2	35.2	0	29	0	0	0	47.1	47.8	0.0
2018 09/18 06:45	40.3	81.4	114.6	8.1	30.01	46.6	189.3	12.99	-40.0	0	-0.2	36.2	35.4	0	29	0	0	0	47.1	47.8	0.0
2018 09/18 07:00	40.1	82.1	97.0	5.8	30.01	46.5	432.0	13.00	-40.0	0	-0.7	34.4	35.0	0	29	0	0	0	47.1	47.8	0.0
2018 09/18 07:15	40.3	82.3	69.4	4.4	30.01	46.4	652.9	13.02	-40.0	0	-0.6	35.3	34.8	0	29	0	0	0	47.1	47.8	0.0
2018 09/18 07:30	40.3	82.3	77.0	4.0	30.01	46.3	735.0	13.00	-40.0	0	-0.6	36.2	35.4	0	29	0	0	0	47.1	47.8	0.0
2018 09/18 07:45	40.6	83.7	94.2	2.8	30.01	46.2	776.0	13.00	-40.0	0	-0.0	36.2	36.7	0	29	0	0	0	47.1	47.8	0.0
2018 09/18 08:00	41.4	82.4	55.7	2.4	30.02	46.1	799.0	13.02	-39.9	0	-0.6	37.1	38.1	0	29	0	0	0	47.1	47.8	0.0
2018 09/18 08:15	41.5	81.4	80.3	4.9	30.02	46.0	817.0	13.01	-39.6	0	-0.6	38.0	39.4	0	29	0	0	0	47.1	47.8	0.0
2018 09/18 08:30	41.6	83.8	86.9	5.3	30.02	45.9	830.0	13.02	-40.0	0	0.0	38.0	41.3	0	29	0	0	0	47.1	47.8	0.0
2018 09/18 08:45	41.9	84.8	82.0	6.8	30.02	45.9	837.0	13.02	-39.9	0	-0.2	38.0	42.4	0	29	0	0	0	47.1	47.8	0.0
2018 09/18 09:00	41.9	81.3	98.8	8.0	30.02	45.9	831.0	13.01	-40.0	0	0.5	40.7	43.1	0	29	0	0	0	47.1	47.8	0.0
2018 09/18 09:15	42.8	79.0	111.3	9.7	30.02	45.8	832.0	13.00	-39.8	0	0.5	42.5	43.8	0	29	0	0	0	47.1	47.8	0.0
2018 09/18 09:30	42.8	83.1	91.8	6.5	30.02	45.8	838.0	13.01	-40.0	0	0.0	43.4	45.3	0	29	0	0	0	47.1	47.8	0.0
2018 09/18 09:45	43.9	79.9	67.3	7.8	30.02	45.9	842.0	12.99	-39.9	0	0.4	45.2	47.2	0	29	0	0	0	47.1	47.8	0.0
2018 09/18 10:00	44.7	76.1	97.5	8.9	30.02	45.9	844.0	13.00	-39.9	0	0.7	46.1	48.4	0	29	0	0	0	47.1	47.8	0.0
2018 09/18 10:15	44.9	77.5	67.2	5.8	30.02	45.9	846.0	13.02	-39.8	0	0.4	47.0	49.5	0	29	0	0	0	47.1	47.8	0.0
2018 09/18 10:30	45.8	73.8	138.8	8.6	30.03	46.0	850.0	13.02	-40.0	0	0.1	49.7	49.8	0	29	0	0	0	47.1	47.8	0.0
2018 09/18 10:45	47.0	72.7	95.9	6.6	30.03	46.0	849.0	13.02	-40.0	0	-0.4	51.5	51.0	0	29	0	0	0	47.1	47.8	0.0
2018 09/18 11:00	47.6	69.0	66.8	7.8	30.03	46.1	850.0	13.02	-39.8	0	-0.2	52.4	52.1	0	29	0	0	0	47.1	47.8	0.0
2018 09/18 11:15	48.8	65.4	50.9	4.7	30.03	46.2	851.0	13.02	-39.9	0	-0.1	49.7	52.5	0	29	0	0	0	47.1	47.8	0.0
2018 09/18 11:30	50.5	60.1	74.6	5.2	30.03	46.4	850.0	13.01	-40.1	0	0.2	51.5	53.0	0	29	0	0	0	47.1	47.8	0.0
2018 09/18 11:45	50.8	55.6	131.0	4.2	30.03	46.5	849.0	13.02	-39.9	0	0.0	51.5	53.9	0	29	0	0	0	47.1	47.8	0.0
2018 09/18 12:00	51.3	56.9	155.4	2.9	30.03	46.7	846.0	13.00	-40.0	0	0.2	51.5	55.3	0	29	0	0	0	47.1	47.8	0.0
2018 09/18 12:15	51.0	64.6	326.8	1.5	30.03	46.8	840.0	12.99	-40.0	0	0.1	51.5	56.2	0	29	0	0	0	47.1	47.8	0.0
2018 09/18 12:30	52.1	63.9	290.4	4.2	30.03	47.0	833.0	13.02	-39.8	0	-0.2	54.2	56.9	0	29	0	0	0	47.1	47.8	0.0
2018 09/18 12:45	51.1	64.2	337.7	4.6	30.03	47.2	841.0	13.02	-39.8	0	-0.2	53.3	57.3	0	29	0	0	0	47.1	47.8	0.0
2018 09/18 13:00	51.7	65.4	236.4	4.5	30.04	47.4	848.0	13.00	-40.0	0	0.4	54.2	57.9	0	29	0	0	0	47.1	47.8	0.0
2018 09/18 13:15	51.6	60.4	302.0	9.2	30.04	47.6	848.0	13.00	-39.6	0	-0.7	56.9	57.6	0	29	0	0	0	47.1	47.8	0.0
2018 09/18 13:30	51.5	56.0	298.1	9.8	30.04	47.9	844.0	13.00	-40.0	0	-0.2	57.8	58.3	0	29	0	0	0	47.1	47.8	0.0
2018 09/18 13:45	52.5	43.4	267.1	5.1	30.05	48.1	843.0	13.02	-40.0	0	-0.3	59.6	58.9	0	29	0	0	0	47.1	47.8	0.0
2018 09/18 14:00	54.3	37.8	248.3	6.5	30.05	48.4	844.0	13.02	-39.6	0	-0.2	59.6	59.8	0	29	0	0	0	47.1	47.8	0.0
2018 09/18 14:15	53.7	38.1	301.8	5.9	30.04	48.7	844.0	13.02	-39.8	0	-0.0	59.6	61.0	0	29	0	0	0	47.1	47.8	0.0
2018 09/18 14:30	54.5	33.9	202.7	3.6	30.04	48.9	846.0	13.04	-40.0	0	-0.2	61.4	60.6	0	29	0	0	0	47.1	47.8	0.0
2018 09/18 14:45	54.5	32.8	265.9	2.6	30.05	49.1	846.0	13.02	-39.9	0	0.4	60.5	61.5	0	29	0	0	0	47.1	47.8	0.0
2018 09/18 15:00	55.6	29.7	202.6	3.8	30.05	49.3	846.0	13.01	-39.9	0	-0.4	61.4	61.5	0	29	0	0	0	47.1	47.8	0.0
2018 09/18 15:15	56.7	41.1	244.3	5.1	30.05	49.6	847.0	13.02	-39.9	0	-0.3	61.4	61.6	0	29	0	0	0	47.1	47.8	0.0
2018 09/18 15:30	54.3	57.1	270.8	8.0	30.05	49.9	849.0	13.00	-40.0	0	-0.6	59.6	61.6	0	29	0	0	0	47.1	47.8	0.0
2018 09/18 15:45	52.3	62.4	277.4	11.5	30.05	50.1	809.0	13.00	-39.9	0	-0.5	59.6	61.9	0	29	0	0	0	47.1	47.8	0.0
2018 09/18 16:00	54.9	60.9	148.9	5.8	30.06	50.4	816.0	13.02	-39.8	0	0.2	57.8	62.3	0	29	0	0	0	47.1	47.8	0.0
2018 09/18 16:15	53.1	63.7	305.3	10.4	30.06	50.7	852.0	13.03	-40.0	0	-0.3	56.9	61.6	0	29	0	0	0	47.1	47.8	0.0
2018 09/18 16:30	52.1	66.2	293.4	10.6	30.06	51.1	850.0	13.01	-39.9	0	0.0	57.8	61.2	0	29	0	0	0	47.1	47.8	0.0
2018 09/18 16:45	52.0	69.4	267.2	7.4	30.07	51.4	841.0	13.02	-39.9	0	-0.4	55.1	59.3	0	29	0	0	0	47.1	47.8	0.0
2018 09/18 17:00	51.4	71.9	294.2	8.0	30.07	51.8	837.0	13.01	-40.0	0	0.0	53.3	59.4	0	29	0	0	0	47.1	47.8	0.0
2018 09/18 17:15	50.8	74.3	294.1	8.7	30.08	52.1	818.0	13.03	-39.9	0	0.0	52.4	57.7	0	29	0	0	0	47.1	47.8	0.0
2018 09/18 17:30	51.2	72.9	288.8	8.6	30.08	52.4	841.0	13.02	-39.9	0	0.0	52.4	57.3	0	29	0	0	0	47.1	47.8	0.0
2018 09/18 17:45	50.5	76.1	290.4	11.1	30.09	52.9	833.0	13.02	-39.9	0	0.1	51.5	56.4	0	29	0	0	0	47.1	47.8	0.0
2018 09/18 18:00	50.3	77.5	233.3	7.9	30.09	53.1	824.0	13.01	-40.0	0	0.2	51.5	55.8	0	29	0	0	0	47.1	47.8	0.0
2018 09/18 18:15	49.4	77.8	313.2	13.1	30.09	53.4	824.0	13.02	-39.9	0	-0.0	50.6	55.1	0	29	0	0	0	47.1	47.8	0.0
2018 09/18 18:30	48.9	80.3	315.5	11.7	30.09	53.7	903.0	13.03	-39.9	0	-0.1	49.7	54.4	0	29	0	0	0	47.1	47.8	0.0
2018 09/18 18:45	47.3	85.1	295.5	12.1	30.10	53.9	778.0	13.01	-39.9	0	0.2	47.9	53.5	0	29	0	0	0	47.1	47.8	0.0
2018 09/18 19:00	45.9	89.4	304.4	14.2	30.10	54.2	571.0	13.01	-40.2	0	0.2	46.1	52.5	0	29	0	0	0	47.1	47.8	0.0
2018 09/18 19:15	44.9	93.4	310.8	14.8	30.10	54.6	331.5	13.02	-39.8	0	0.4	45.2	51.5	0	29	0	0	0	47.1	47.8	0.0
2018 09/18 19:30	44.3	95.5	301.2	14.2	30.11	54.8	96.7	13.03	-40.1	0	-0.6	44.3	51.0	0	29	0	0	0	47.1	47.8	0.0
2018 09/18 19:45	43.7	97.4	299.7	14.9	30.11	55.0	65.8	13.01	-39.6	0	0.2	43.4	49.9	0	29	0	0	0	47.1	47.8	0.0
2018 09/18 20:00	43.0	98.5	297.0	13.3	30.11	55.0	61.1	13.03	-40.2	0	0.3	42.5	49.5	0	29	0	0	0	47.1	47.8	0.0
2018 09/18 20:15	42.8	98.7	291.2	6.7	30.12	55.2	60.4	13.03	-39.9	0	0.1	42.5	48.6	0	29	0	0	0	47.1	47.8	0.0
2018 09/18 20:30	43.7	97.2	291.2	4.2	30.12	55.2	60.4	13.02	-39.9	0	-0.1	42.5	48.1	0	29	0	0	0	47.1	47.8	0.0
2018 09/18 20:45	42.9	98.9	288.8	6.5	30.12	55.2	60.4	13.02	-39.9	0	0.3	41.6	47.8	0	29	0	0	0	47.1	47.8	0.0
2018 09/18 21:00	43.0	98.9	281.9	2.4	30.12	55.4	60.7	13.02	-40.1	0	0.3	41.6	47.6	0	29	0	0	0	47.1	47.8	0.0
2018 09/18 21:15	44.5	91.5	154.4	0.0	30.13	55.3	60.7	13.01	-40.0	0	0.3	41.6	47.0	0	29	0	0	0	47.1	47.8	0.0
2018 09/18 21:30	44.5	92.4	147.7	0.0	30.12	55.2	61.1	13.03	-40.0	0	-0.1	41.6	45.7	0	29	0	0	0	47.1	47.8	0.0
2018 09/18 21:45	42.2	97.2	274.7	5.6	30.13	55.2	60.4	13.03	-39.9	0	0.3	40.7	46.7	0	29	0	0	0	47.1	47.8	0.0
2018 09/18 22:00	43.7	93.4	137.1	1.5	30.12	55.2	61.1	13.01	-39.9	0	0.2	40.7	44.9	0	29	0	0	0	47.1	47.8	0.0
2018 09/18 22:15	44.5	90.0	124.0	3.2	30.12	55.0	61.4	13.01	-40.2	0	0.2	40.7	44.2	0	29	0	0	0	47.1	47.8	0.0
2018 09/18 22:30	44.9	84.1	91.7	4.6	30.11	55.0	61.1	13.03	-39.8	0	0.2	40.7	43.5	0	29	0	0	0	47.1	47.8	0.0
2018 09/18 22:45	44.6	84.9	105.6	5.3	30.11	54.8	61.1	13.01	-39.9	0	0.2	40.7	43.0	0	29	0	0	0	47.1	47.8	0.0
2018 09/18 23:00	44.6	84.8	96.2	5.6	30.11	54.7	59.7	13.01	-40.1	0	0.2	39.8	42.3	0	29	0	0	0	47.1	47.8	0.0
2018 09/18 23:15	44.5	84.3	108.2	8.1	30.10	54.6	60.4	13.03	-40.0	0	0.2	39.8	41.7	0	29	0	0	0	47.1	47.8	0.0
2018 09/18 23:30	44.5	83.9	93.8	8.0	30.10	54.4	60.7	13.01	-39.9	0	0.0	39.8	41.1	0	29	0	0	0	47.1	47.8	0.0
2018 09/18 23:45	44.4	78.8	68.1	10.8	30.09	54.2	60.7	13.01	-40.0	0	0.1	39.8	40.3	0	29	0	0	0	47.1	47.8	0.0
2018 09/19 00:00	44.4	75.4	82.9	11.2	30.09	54.1	60.7	13.01	-40.0	0	0.0	39.8	39.7	0	29	0	0	0	47.1	47.8	0.0
2018 09/19 00:15	44.3	77.4	70.0	12.1	30.09	53.9	61.1	13.03	-39.9	0	0.1	39.8	39.7	0	29	0	0	0	47.1	47.8	0.0
2018 09/19 00:30	43.9	80.4	68.8	10.6	30.09	53.7	61.1	13.01	-39.6	0	0.2	39.8	39.3	0	29	0	0	0	47.1	47.8	0.0
2018 09/19 00:45	44.0	82.0	47.5	5.8	30.09	53.5	61.1	13.01	-40.2	0	0.0	38.9	39.1	0	29	0	0	0	47.1	47.8	0.0
2018 09/19 01:00	42.0	93.0	318.6	3.1	30.08	53.4	61.1	13.01	-40.1	0	0.1	39.8	38.2	0	29	0	0	0	47.1	47.8	0.0
2018 09/19 01:15	40.6	98.0	312.4	6.8	30.08	53.1	61.1	13.01	-39.9	0	0.1	38.9	37.8	0	29	0	0	0	47.1	47.8	0.0
2018 09/19 01:30	40.5	99.5	313.2	6.1	30.08	53.1	61.1	13.01	-39.9	0	-0.2	38.9	38.2	0	29	0	0	0	47.1	47.8	0.0
2018 09/19 01:45	41.3	98.0	326.7	2.8	30.08	52.9	61.1	13.02	-40.0	0	0.2	38.9	39.7	0	29	0	0	0	47.1	47.8	0.0
2018 09/19 02:00	40.9	99.1	297.3	6.9	30.08	52.6	61.1	13.02	-39.9	0	0.1	38.9	39.0	0	29	0	0	0	47.1	47.8	0.0
2018 09/19 02:15	40.5	99.8	285.9	6.4	30.08	52.4	61.4	13.01	-39.9	0	0.2	38.9	38.6	0	29	0	0	0	47.1	47.8	0.0
2018 09/19 02:30	39.8	100.1	286.7	7.7	30.07	52.2	61.8	13.02	-39.9	0	0.2	38.9	43.0	0	29	0	0	0	47.1	47.8	0.0
2018 09/19 02:45	39.6	100.2	288.2	9.8	30.07	52.0	61.8	13.03	-40.0	0	-0.8	38.9	43.4	0	29	0	0	0	47.1	47.8	0.0
2018 09/19 03:00	39.5	100.3	290.4	9.9	30.07	51.8	61.8	13.00	-40.1	0	-0.6	38.9	43.3	0	29	0	0	0	47.1	47.8	0.0
2018 09/19 03:15	39.5	100.3	294.2	13.4	30.06	51.6	61.8	13.03	-40.1	0	-0.6	38.9	43.5	0	29	0	0	0	47.1	47.8	0.0
2018 09/19 03:30	39.4	100.4	278.9	14.7	30.06	51.4	61.8	13.00	-40.1	0	-0.5	38.9	43.9	0	29	0	0	0	47.1	47.8	0.0
2018 09/19 03:45	39.3	100.5	299.1	10.5	30.07	51.3	61.4	13.00	-40.0	0	-0.1	38.9	44.1	0	29	0	0	0	47.1	47.8	0.0
2018 09/19 04:00	39.4	100.4	292.9	9.2	30.07	51.1	61.1	13.02	-40.0	0	-0.6	38.9	44.3	0	29	0	0	0	47.1	47.8	0.0
2018 09/19 04:15	39.4	100.5	288.9	8.5	30.06	50.9	61.1	13.01	-39.9	0	-0.2	38.9	44.4	0	29	0	0	0	47.1	47.8	0.0
2018 09/19 04:30	39.5	100.4	292.8	9.3	30.06	50.7	61.1	13.01	-40.0	0	-0.5	38.9	44.5	0	29	0	0	0	47.1	47.8	0.0
2018 09/19 04:45	39.4	100.6	298.1	10.8	30.06	50.5	61.1	13.00	-40.0	0	0.1	38.9	44.7	0	29	0	0	0	47.1	47.8	0.0
2018 09/19 05:00	39.6	100.6	298.2	10.8	30.06	50.3	61.1	13.02	-40.1	0	-0.2	38.9	44.7	0	29	0	0	0	47.1	47.8	0.0
2018 09/19 05:15	39.8	100.7	295.1	8.9	30.06	50.1	61.1	13.01	-39.9	0	-0.0	38.9	44.3	0	29	0	0	0	47.1	47.8	0.0
2018 09/19 05:30	39.5	100.6	314.7	7.2	30.05	50.0	61.1	13.01	-40.0	0	-0.1	38.9	44.5	0	29	0	0	0	47.1	47.8	0.0
2018 09/19 05:45	39.3	100.6	293.0	11.7	30.05	49.9	61.1	13.00	-39.8	0	-0.1	38.9	44.5	0	29	0	0	0	47.1	47.8	0.0
2018 09/19 06:00	39.3	100.6	305.4	5.8	30.05	49.7	62.1	13.02	-39.8	0	-0.1	38.9	44.5	0	29	0	0	0	47.1	47.8	0.0
2018 09/19 06:15	38.9	100.7	227.0	5.1	30.05	49.5	61.8	13.00	-39.6	0	0.2	38.9	44.7	0	29	0	0	0	47.1	47.8	0.0
2018 09/19 06:30	38.8	100.8	285.3	9.1	30.05	49.3	66.8	12.99	-40.0	0	0.0	38.9	44.3	0	29	0	0	0	47.1	47.8	0.0
2018 09/19 06:45	38.4	100.5	290.1	7.7	30.05	49.1	90.9	13.01	-39.9	0	-0.1	38.0	44.2	0	29	0	0	0	47.1	47.8	0.0
2018 09/19 07:00	38.2	100.7	299.3	8.0	30.05	49.0	282.0	13.03	-39.9	0	-0.0	38.9	44.2	0	29	0	0	0	47.1	47.8	0.0
2018 09/19 07:15	38.1	100.6	290.9	8.9	30.05	48.9	526.0	12.99	-40.0	0	0.1	38.9	44.4	0	29	0	0	0	47.1	47.8	0.0
2018 09/19 07:30	38.5	100.6	281.7	10.7	30.06	48.7	648.1	13.02	-40.0	0	-0.1	38.9	44.4	0	29	0	0	0	47.1	47.8	0.0
2018 09/19 07:45	38.3	100.6	289.3	9.5	30.06	48.5	689.5	13.02	-40.1	0	0.1	38.9	44.3	0	29	0	0	0	47.1	47.8	0.0
2018 09/19 08:00	37.9	100.6	280.2	9.9	30.06	48.4	717.0	13.00	-40.0	0	0.0	38.9	44.7	0	29	0	0	0	47.1	47.8	0.0
2018 09/19 08:15	37.7	100.6	291.2	10.8	30.05	48.2	778.0	13.00	-40.0	0	-0.2	38.9	44.4	0	29	0	0	0	47.1	47.8	0.0
2018 09/19 08:30	37.6	100.6	305.1	10.2	30.06	48.1	790.0	13.01	-40.0	0	0.2	38.9	44.3	0	29	0	0	0	47.1	47.8	0.0
2018 09/19 08:45	37.9	100.6	296.0	8.5	30.06	48.0	771.0	13.02	-39.9	0	-0.0	39.8	44.5	0	29	0	0	0	47.1	47.8	0.0
2018 09/19 09:00	37.1	100.6	268.2	11.4	30.06	47.9	828.0	13.02	-39.9	0	0.2	39.8	44.7	0	29	0	0	0	47.1	47.8	0.0
2018 09/19 09:15	37.8	100.6	284.8	10.8	30.06	47.8	827.0	13.00	-39.9	0	0.2	39.8	45.0	0	29	0	0	0	47.1	47.8	0.0
2018 09/19 09:30	38.1	100.7	284.8	9.8	30.06	47.6	787.0	12.99	-40.1	0	0.4	41.6	45.6	0	29	0	0	0	47.1	47.8	0.0
2018 09/19 09:45	37.9	100.6	308.7	10.7	30.07	47.6	793.0	12.99	-39.9	0	0.6	40.7	45.7	0	29	0	0	0	47.1	47.8	0.0
2018 09/19 10:00	37.8	100.7	270.8	12.2	30.07	47.4	830.0	13.00	-40.0	0	0.4	42.5	47.7	0	29	0	0	0	47.1	47.8	0.0
2018 09/19 10:15	38.3	100.7	271.3	8.3	30.07	47.4	820.0	13.00	-39.6	0	0.7	43.4	46.9	0	29	0	0	0	47.1	47.8	0.0
2018 09/19 10:30	38.9	100.6	276.9	6.6	30.07	47.3	852.0	13.00	-40.0	0	0.3	46.1	47.7	0	29	0	0	0	47.1	47.8	0.0
2018 09/19 10:45	39.0	100.7	295.0	11.8	30.07	47.3	852.0	13.03	-39.8	0	-0.1	47.0	48.7	0	29	0	0	0	47.1	47.8	0.0
2018 09/19 11:00	40.3	93.9	299.8	10.5	30.07	47.2	854.0	13.00	-39.9	0	0.0	46.1	49.9	0	29	0	0	0	47.1	47.8	0.0
2018 09/19 11:15	41.4	90.2	237.1	8.3	30.07	47.2	852.0	13.00	-39.9	0	0.4	46.1	50.3	0	29	0	0	0	47.1	47.8	0.0
2018 09/19 11:30	42.1	78.6	304.2	11.4	30.06	47.2	852.0	13.02	-39.9	0	-0.2	47.0	51.1	0	29	0	0	0	47.1	47.8	0.0
2018 09/19 11:45	43.9	72.8	301.9	10.7	30.06	47.2	852.0	13.00	-39.9	0	0.5	47.0	51.5	0	29	0	0	0	47.1	47.8	0.0
2018 09/19 12:00	44.5	72.2	267.9	9.9	30.07	47.2	850.0	13.01	-40.0	0	0.9	47.9	51.9	0	29	0	0	0	47.1	47.8	0.0
2018 09/19 12:15	45.1	69.6	301.8	6.0	30.07	47.3	843.0	13.03	-40.0	0	0.2	47.9	53.2	0	29	0	0	0	47.1	47.8	0.0
2018 09/19 12:30	45.6	62.4	270.3	11.5	30.06	47.4	838.0	12.99	-39.6	0	-0.0	48.8	53.3	0	29	0	0	0	47.1	47.8	0.0
2018 09/19 12:45	46.7	56.5	285.4	18.0	30.06	47.4	848.0	13.02	-39.9	0	0.4	49.7	53.4	0	29	0	0	0	47.1	47.8	0.0
2018 09/19 13:00	48.6	53.6	271.7	12.4	30.06	47.6	820.0	13.02	-39.8	0	0.3	51.5	55.1	0	29	0	0	0	47.1	47.8	0.0
2018 09/19 13:15	49.8	46.9	271.7	6.4	30.06	47.6	854.0	13.01	-39.8	0	0.4	51.5	55.0	0	29	0	0	0	47.1	47.8	0.0
2018 09/19 13:30	48.7	48.7	130.1	12.6	30.06	47.8	844.0	13.00	-40.0	0	-0.3	53.3	56.0	0	29	0	0	0	47.1	47.8	0.0
2018 09/19 13:45	49.7	45.7	327.6	5.6	30.07	48.0	850.0	12.99	-39.9	0	-0.2	54.2	56.2	0	29	0	0	0	47.1	47.8	0.0
2018 09/19 14:00	48.9	40.6	270.5	13.4	30.06	48.1	845.0	12.99	-39.9	0	-0.4	55.1	56.0	0	29	0	0	0	47.1	47.8	0.0
2018 09/19 14:15	49.3	38.2	280.0	10.5	30.06	48.2	845.0	13.02	-40.0	0	-0.4	55.1	56.5	0	29	0	0	0	47.1	47.8	0.0
2018 09/19 14:30	50.5	45.1	327.2	8.6	30.06	48.5	845.0	13.03	-39.9	0	-0.2	54.2	56.5	0	29	0	0	0	47.1	47.8	0.0
2018 09/19 14:45	51.4	44.1	274.5	4.6	30.06	48.5	844.0	13.00	-40.0	0	-0.6	54.2	56.5	0	29	0	0	0	47.1	47.8	0.0
2018 09/19 15:00	51.9	43.1	288.7	7.5	30.06	48.7	843.0	13.02	-40.0	0	0.0	53.3	56.7	0	29	0	0	0	47.1	47.8	0.0
2018 09/19 15:15	50.1	47.9	82.8	10.0	30.07	48.9	842.0	13.03	-40.1	0	-0.4	55.1	56.8	0	29	0	0	0	47.1	47.8	0.0
2018 09/19 15:30	50.1	50.6	276.8	8.9	30.07	49.1	839.0	13.01	-39.9	0	0.0	53.3	57.1	0	29	0	0	0	47.1	47.8	0.0
2018 09/19 15:45	50.3	51.3	241.3	12.7	30.07	49.3	836.0	13.02	-39.6	0	-0.2	53.3	57.5	0	29	0	0	0	47.1	47.8	0.0
2018 09/19 16:00	50.9	49.0	282.9	13.4	30.07	49.5	834.0	13.02	-39.9	0	0.1	51.5	56.9	0	29	0	0	0	47.1	47.8	0.0
2018 09/19 16:15	48.4	53.3	285.4	18.0	30.07	49.7	836.0	13.02	-39.8	0	0.1	52.4	57.0	0	29	0	0	0	47.1	47.8	0.0
2018 09/19 16:30	48.2	55.9	315.6	17.1	30.08	49.9	837.0	13.00	-39.8	0	-0.2	52.4	56.9	0	29	0	0	0	47.1	47.8	0.0
2018 09/19 16:45	50.4	54.6	141.6	8.6	30.08	50.2	846.0	13.01	-39.9	0	-0.0	50.6	56.6	0	29	0	0	0	47.1	47.8	0.0
2018 09/19 17:00	49.8	59.9	303.7	5.8	30.08	50.5	850.0	13.03	-40.0	0	0.2	50.6	55.9	0	29	0	0	0	47.1	47.8	0.0
2018 09/19 17:15	47.2	65.8	317.1	15.4	30.08	50.8	847.0	13.03	-39.8	0	-0.2	50.6	55.8	0	29	0	0	0	47.1	47.8	0.0
2018 09/19 17:30	48.5	63.9	247.8	11.1	30.09	51.0	821.0	13.02	-39.6	0	-0.1	47.9	53.3	0	29	0	0	0	47.1	47.8	0.0
2018 09/19 17:45	46.6	67.8	298.1	15.3	30.08	51.4	836.0	13.01	-40.0	0	0.2	48.8	52.2	0	29	0	0	0	47.1	47.8	0.0
2018 09/19 18:00	46.4	68.3	282.9	17.1	30.09	51.6	831.0	13.01	-39.9	0	0.2	47.0	52.0	0	29	0	0	0	47.1	47.8	0.0
2018 09/19 18:15	45.6	69.8	255.4	10.8	30.10	51.9	811.0	13.01	-39.6	0	0.2	46.1	51.6	0	29	0	0	0	47.1	47.8	0.0
2018 09/19 18:30	44.9	70.1	274.6	15.9	30.10	52.2	890.0	13.01	-40.0	0	0.0	46.1	50.8	0	29	0	0	0	47.1	47.8	0.0
2018 09/19 18:45	44.3	70.6	265.8	13.2	30.11	52.4	746.0	13.01	-39.9	0	0.2	44.3	50.2	0	29	0	0	0	47.1	47.8	0.0
2018 09/19 19:00	42.9	69.8	245.0	14.6	30.11	52.6	878.0	13.02	-39.9	0	0.2	42.5	49.3	0	29	0	0	0	47.1	47.8	0.0
2018 09/19 19:15	41.6	71.1	259.7	9.8	30.12	52.9	390.2	13.03	-39.9	0	0.2	41.6	48.5	0	29	0	0	0	47.1	47.8	0.0
2018 09/19 19:30	40.7	72.4	241.5	13.3	30.12	53.1	108.6	13.03	-40.0	0	0.0	40.7	47.6	0	29	0	0	0	47.1	47.8	0.0
2018 09/19 19:45	40.0	73.7	278.6	14.6	30.13	53.1	69.5	13.03	-40.0	0	0.2	39.8	46.7	0	29	0	0	0	47.1	47.8	0.0
2018 09/19 20:00	39.9	75.3	247.8	14.1	30.12	53.3	61.4	13.01	-40.0	0	-0.0	39.8	46.0	0	29	0	0	0	47.1	47.8	0.0
2018 09/19 20:15	39.1	77.6	11.6	12.0	30.13	53.3	60.7	13.03	-40.0	0	0.2	38.9	45.7	0	29	0	0	0	47.1	47.8	0.0
2018 09/19 20:30	38.4	80.4	260.8	12.4	30.14	53.3	60.4	13.02	-39.8	0	0.2	38.0	45.2	0	29	0	0	0	47.1	47.8	0.0
2018 09/19 20:45	38.2	81.8	278.6	9.7	30.14	53.3	60.7	13.02	-39.9	0	0.1	38.0	44.8	0	29	0	0	0	47.1	47.8	0.0
2018 09/19 21:00	37.9	83.4	327.7	9.9	30.14	53.3	60.7	13.02	-39.8	0	0.0	38.0	44.4	0	29	0	0	0	47.1	47.8	0.0
2018 09/19 21:15	37.6	85.4	249.4	11.9	30.14	53.2	61.4	13.03	-40.2	0	0.0	37.1	44.1	0	29	0	0	0	47.1	47.8	0.0
2018 09/19 21:30	37.3	87.1	271.8	12.5	30.14	53.1	61.1	13.02	-40.0	0	0.3	36.2	43.9	0	29	0	0	0	47.1	47.8	0.0
2018 09/19 21:45	37.7	87.7	290.0	15.2	30.14	53.1	61.4	13.01	-39.8	0	-0.0	37.1	44.0	0	29	0	0	0	47.1	47.8	0.0
2018 09/19 22:00	37.8	89.1	281.2	15.1	30.13	52.9	61.1	13.03	-39.9	0	0.0	37.1	44.0	0	29	0	0	0	47.1	47.8	0.0
2018 09/19 22:15	37.7	91.1	291.1	9.8	30.14	52.7	61.1	13.00	-39.9	0	-0.2	37.1	43.8	0	29	0	0	0	47.1	47.8	0.0
2018 09/19 22:30	37.3	92.4	282.6	10.1	30.13	52.6	61.1	13.01	-40.0	0	0.2	37.1	43.9	0	29	0	0	0	47.1	47.8	0.0
2018 09/19 22:45	36.7	93.4	223.9	8.7	30.12	52.4	61.1	13.01	-39.9	0	0.1	36.2	43.3	0	29	0	0	0	47.1	47.8	0.0
2018 09/19 23:00	37.1	93.4	266.6	13.4	30.12	52.2	60.7	13.02	-39.9	0	0.1	36.2	43.2	0	29	0	0	0	47.1	47.8	0.0
2018 09/19 23:15	37.1	93.6	269.0	10.2	30.12	52.0	61.8	13.01	-39.8	0	0.2	36.2	42.7	0	29	0	0	0	47.1	47.8	0.0
2018 09/19 23:30	37.0	94.6	274.2	11.7	30.12	51.9	61.4	13.03	-40.0	0	0.2	36.2	42.7	0	29	0	0	0	47.1	47.8	0.0
2018 09/19 23:45	37.1	95.1	284.0	12.9	30.11	51.8	61.4	13.04	-39.9	0	0.2	36.2	42.7	0	29	0	0	0	47.1	47.8	0.0
2018 09/20 00:00	37.2	95.5	269.4	14.4	30.11	51.6	61.1	13.03	-39.9	0	0.4	36.2	42.9	0	29	0	0	0	47.1	47.8	0.0
2018 09/20 00:15	37.0	95.9	279.9	14.6	30.10	51.4	61.1	13.01	-39.9	0	0.3	36.2	41.7	0	29	0	0	0	47.1	47.8	0.0
2018 09/20 00:30	37.1	97.0	278.2	15.8	30.10	51.2	61.4	13.02	-39.9	0	0.0	36.2	40.9	0	29	0	0	0	47.1	47.8	0.0
2018 09/20 00:45	37.2	96.0	280.7	15.2	30.10	51.0	61.4	13.01	-40.0	0	0.2	36.2	38.7	0	29	0	0	0	47.1	47.8	0.0
2018 09/20 01:00	37.2	96.4	272.8	16.2	30.09	50.8	61.4	13.02	-40.0	0	0.1	36.2	38.7	0	29	0	0	0	47.1	47.8	0.0
2018 09/20 01:15	37.1	96.5	261.1	12.9	30.09	50.5	61.8	13.00	-39.9	0	-0.1	36.2	40.2	0	29	0	0	0	47.1	47.8	0.0
2018 09/20 01:30	36.7	97.6	217.5	9.7	30.09	50.3	61.4	13.00	-40.1	0	0.1	36.2	37.8	0	29	0	0	0	47.1	47.8	0.0
2018 09/20 01:45	37.2	97.4	294.2	9.3	30.09	50.1	61.8	13.00	-39.6	0	0.4	36.2	39.5	0	29	0	0	0	47.1	47.8	0.0
2018 09/20 02:00	37.1	97.4	263.1	9.8	30.09	49.9	61.8	13.02	-39.8	0	0.2	37.1	41.1	0	29	0	0	0	47.1	47.8	0.0
2018 09/20 02:15	37.1	97.4	264.4	9.5	30.09	49.7	61.4	13.02	-39.9	0	0.0	37.1	40.3	0	29	0	0	0	47.1	47.8	0.0
2018 09/20 02:30	37.0	97.7	340.4	10.9	30.08	49.4	61.8	13.01	-39.9	0	0.4	36.2	39.3	0	29	0	0	0	47.1	47.8	0.0
2018 09/20 02:45	37.1	97.8	279.1	15.4	30.08	49.2	61.4	13.03	-40.0	0	0.2	37.1	41.3	0	29	0	0	0	47.1	47.8	0.0
2018 09/20 03:00	36.8	98.3	268.1	11.1	30.07	49.0	61.8	13.01	-39.9	0	0.1	37.1	42.6	0	29	0	0	0	47.1	47.8	0.0
2018 09/20 03:15	37.2	98.9	283.2	11.4	30.07	48.9	61.8	13.01	-40.0	0	0.4	37.1	42.9	0	29	0	0	0	47.1	47.8	0.0
2018 09/20 03:30	37.2	99.3	284.7	12.7	30.07	48.7	62.1	13.00	-40.1	0	0.2	37.1	43.1	0	29	0	0	0	47.1	47.8	0.0
2018 09/20 03:45	37.5	99.6	236.8	10.6	30.07	48.5	61.8	13.02	-40.0	0	0.1	38.0	43.4	0	29	0	0	0	47.1	47.8	0.0
2018 09/20 04:00	37.1	99.6	258.9	14.7	30.07	48.2	61.8	13.01	-39.9	0	0.2	38.0	43.4	0	29	0	0	0	47.1	47.8	0.0

Where:
  YYYY   = Year
  MM/DD  = Month / Date
  hh:mm  = Hour  : Minute
  Temp   = Temperature outside       (F)              @ 5720', on tower
  Humid  = Humidity    outside       (%)              @ 5720'
  W_dir  = Wind direction / Azimuth  (degrees)        @ 5720'
  W_spd  = Wind speed                (miles per hour) @ 5720'
  Barom  = Sea-level air pressure    (inches of mercury)
  T_int  = Temperature (internal)    (F)              - inside barometer case
  Light  = Outside light level       (no units)       - 0 = dark, 1000 = bright
  Power  = Power supply rail         (Volts)
  Temp2  = Temperature (back-up)     (F)
  P2     = datalogger counter channel "P2" (to be static burst counter)
  Snow   = Snow depth,  mid-mountain (inches)         @ 5010'
  T_mid  = Temperature, mid-mountain (F)              @ 5010'
  T_base = Temperature @ south lodge (F)              @ 4700'
  Precip = Precipitation total       (inches)         @ 4800' (near US20 mp81)

Notes:
1999 07/17
   Barometric data in this listing should have an additional
   temperature correction applied to it, based on the sensor's
   internal temperature:

   P_corrected = Barom + (-0.0223 * T_int) + 0.8887  (inches Hg)

2004 07/03
   The air pressure correction equation has not been checked
   in a long time.  The air pressure reading is best used only
   to observe general trends.

2006 11/18
   Added precipitation gauge.  Depth is precipitation equivalent in water,
   for the water year (beginning October 1st) at the Hogg Pass
   SnoTel station.

2011 03/11
  Fixed data column title bug from adding "T_base" after "T_mid".
  If you notice a bug like this it will get fixed a whole lot sooner
  if you tell me about it.